<?xml version="1.0" encoding="UTF-8" standalone="no" ?>
<gpx xmlns="http://www.topografix.com/GPX/1/1" creator="OruxMaps v.10.7.2 GP" version="1.1" xmlns:gpxtpx="http://www.garmin.com/xmlschemas/TrackPointExtension/v2" xmlns:xsi="http://www.w3.org/2001/XMLSchema-instance" xmlns:om="http://www.oruxmaps.com/oruxmapsextensions/1/0" xsi:schemaLocation="http://www.topografix.com/GPX/1/1 http://www.topografix.com/GPX/1/1/gpx.xsd">
<!-- owner: b9c65f69f0f6d0 -->
<metadata>
<name><![CDATA[2024-08-19 11:13:16]]></name>
<link href="https://www.oruxmaps.com">
<text>OruxMaps GP</text>
</link>
<time>2024-08-19T09:13:16.817Z</time><bounds maxlat="41.8683183" maxlon="13.7955967" minlat="41.7950567" minlon="13.7762800"/>
</metadata>
<wpt lat="41.7951917" lon="13.7834767">
<ele>1162.66</ele>
<time>2024-08-19T09:13:22.205Z</time>
<name><![CDATA[]]></name>
<sym>Waypoint</sym>
<type>Punto iniziale</type>
<extensions>
<om:oruxmapsextensions>
<om:ext type="ICON" subtype="0">38</om:ext>
</om:oruxmapsextensions>
</extensions>
</wpt>
<wpt lat="41.7953467" lon="13.7835233">
<ele>1213.85</ele>
<time>2024-08-19T11:08:01.685Z</time>
<name><![CDATA[]]></name>
<desc><![CDATA[<p><br /><h3>Nome: Segment: 1</h3><br />Tipo: Non definito<br/>Orario inizio: 11:13 19 Ago 2024<br/>Orario fine: 13:07 19 Ago 2024<br/>Distanza: 24,6km (01:54)<br/>Tempo movimento: 01:41<br/>Velocità media: 12,89 km/h<br/>Velocità in movimento: 14,51 km/h<br/>Velocità max: 43,92 km/h<br/>Altitudine minima: 1149 m<br/>Altitudine massima: 1476 m<br/>Velocità di salita: 466,9 m/h<br/>Velocità in discesa: 778,3 m/h<br/>Dislivello positivo: 468 m<br/>Dislivello negativo: 452 m<br/>Tempo di salita: 01:00<br/>Tempo di discesa: 00:34<br/></p>]]></desc>
<sym>Waypoint</sym>
<type>Punto finale</type>
<extensions>
<om:oruxmapsextensions>
<om:ext type="ICON" subtype="0">15</om:ext>
</om:oruxmapsextensions>
</extensions>
</wpt>
<trk>
<name><![CDATA[2024-08-19 11:13:16]]></name>
<desc><![CDATA[<p>Tipo: Non definito<br/>Orario inizio: 11:13 19 Ago 2024<br/>Orario fine: 13:07 19 Ago 2024<br/>Distanza: 24,6 km (01:54)<br/>Tempo movimento: 01:41<br/>Velocità media: 12,89 km/h<br/>Velocità in movimento: 14,51 km/h<br/>Velocità max: 43,92 km/h<br/>Altitudine minima: 1149 m<br/>Altitudine massima: 1476 m<br/>Velocità di salita: 466,9 m/h<br/>Velocità in discesa: 778,3 m/h<br/>Dislivello positivo: 468 m<br/>Dislivello negativo: 452 m<br/>Tempo di salita: 01:00<br/>Tempo di discesa: 00:34<br/></p><hr align="center" width="480" style="height: 2px; width: 517px"/>]]></desc>
<type>Non definito</type>
<extensions>
<om:oruxmapsextensions>
<om:ext type="TYPE" subtype="0">0</om:ext>
<om:ext type="DIFFICULTY">0</om:ext>
</om:oruxmapsextensions>
</extensions>
<trkseg>
<trkpt lat="41.7951917" lon="13.7834767">
<ele>1162.66</ele>
<time>2024-08-19T09:13:22.187Z</time>
</trkpt>
<trkpt lat="41.7952367" lon="13.7835517">
<ele>1166.52</ele>
<time>2024-08-19T09:13:25.199Z</time>
</trkpt>
<trkpt lat="41.7950567" lon="13.7834967">
<ele>1168.13</ele>
<time>2024-08-19T09:14:14.000Z</time>
</trkpt>
<trkpt lat="41.7952000" lon="13.7833383">
<ele>1167.40</ele>
<time>2024-08-19T09:15:49.000Z</time>
</trkpt>
<trkpt lat="41.7953417" lon="13.7831450">
<ele>1163.35</ele>
<time>2024-08-19T09:15:57.000Z</time>
</trkpt>
<trkpt lat="41.7954900" lon="13.7832833">
<ele>1158.47</ele>
<time>2024-08-19T09:16:15.000Z</time>
</trkpt>
<trkpt lat="41.7955883" lon="13.7835317">
<ele>1158.35</ele>
<time>2024-08-19T09:16:20.000Z</time>
</trkpt>
<trkpt lat="41.7957350" lon="13.7837317">
<ele>1158.25</ele>
<time>2024-08-19T09:16:25.000Z</time>
</trkpt>
<trkpt lat="41.7958700" lon="13.7839317">
<ele>1157.00</ele>
<time>2024-08-19T09:16:30.000Z</time>
</trkpt>
<trkpt lat="41.7960583" lon="13.7840750">
<ele>1156.66</ele>
<time>2024-08-19T09:16:35.000Z</time>
</trkpt>
<trkpt lat="41.7962383" lon="13.7841200">
<ele>1156.90</ele>
<time>2024-08-19T09:16:39.000Z</time>
</trkpt>
<trkpt lat="41.7964550" lon="13.7841817">
<ele>1156.50</ele>
<time>2024-08-19T09:16:43.000Z</time>
</trkpt>
<trkpt lat="41.7966467" lon="13.7842633">
<ele>1156.65</ele>
<time>2024-08-19T09:16:46.000Z</time>
</trkpt>
<trkpt lat="41.7968250" lon="13.7843383">
<ele>1157.84</ele>
<time>2024-08-19T09:16:49.000Z</time>
</trkpt>
<trkpt lat="41.7969983" lon="13.7844567">
<ele>1157.15</ele>
<time>2024-08-19T09:16:52.000Z</time>
</trkpt>
<trkpt lat="41.7971733" lon="13.7846167">
<ele>1154.41</ele>
<time>2024-08-19T09:16:55.000Z</time>
</trkpt>
<trkpt lat="41.7973500" lon="13.7848367">
<ele>1152.82</ele>
<time>2024-08-19T09:16:58.000Z</time>
</trkpt>
<trkpt lat="41.7975200" lon="13.7850450">
<ele>1150.54</ele>
<time>2024-08-19T09:17:01.000Z</time>
</trkpt>
<trkpt lat="41.7976850" lon="13.7852550">
<ele>1150.12</ele>
<time>2024-08-19T09:17:05.000Z</time>
</trkpt>
<trkpt lat="41.7978750" lon="13.7853933">
<ele>1149.91</ele>
<time>2024-08-19T09:17:10.000Z</time>
</trkpt>
<trkpt lat="41.7980617" lon="13.7854300">
<ele>1150.34</ele>
<time>2024-08-19T09:17:14.000Z</time>
</trkpt>
<trkpt lat="41.7982683" lon="13.7854700">
<ele>1150.22</ele>
<time>2024-08-19T09:17:18.000Z</time>
</trkpt>
<trkpt lat="41.7984850" lon="13.7855117">
<ele>1150.45</ele>
<time>2024-08-19T09:17:22.000Z</time>
</trkpt>
<trkpt lat="41.7987050" lon="13.7855633">
<ele>1151.41</ele>
<time>2024-08-19T09:17:26.000Z</time>
</trkpt>
<trkpt lat="41.7989300" lon="13.7855983">
<ele>1151.99</ele>
<time>2024-08-19T09:17:30.000Z</time>
</trkpt>
<trkpt lat="41.7991400" lon="13.7856733">
<ele>1152.29</ele>
<time>2024-08-19T09:17:34.000Z</time>
</trkpt>
<trkpt lat="41.7993500" lon="13.7857850">
<ele>1154.05</ele>
<time>2024-08-19T09:17:38.000Z</time>
</trkpt>
<trkpt lat="41.7995533" lon="13.7858733">
<ele>1155.03</ele>
<time>2024-08-19T09:17:42.000Z</time>
</trkpt>
<trkpt lat="41.7997450" lon="13.7859517">
<ele>1155.44</ele>
<time>2024-08-19T09:17:46.000Z</time>
</trkpt>
<trkpt lat="41.7999450" lon="13.7860200">
<ele>1155.34</ele>
<time>2024-08-19T09:17:50.000Z</time>
</trkpt>
<trkpt lat="41.8001233" lon="13.7861017">
<ele>1156.07</ele>
<time>2024-08-19T09:17:53.000Z</time>
</trkpt>
<trkpt lat="41.8003400" lon="13.7861633">
<ele>1155.89</ele>
<time>2024-08-19T09:17:57.000Z</time>
</trkpt>
<trkpt lat="41.8005433" lon="13.7862250">
<ele>1154.75</ele>
<time>2024-08-19T09:18:01.000Z</time>
</trkpt>
<trkpt lat="41.8007750" lon="13.7862900">
<ele>1152.20</ele>
<time>2024-08-19T09:18:05.000Z</time>
</trkpt>
<trkpt lat="41.8009983" lon="13.7863650">
<ele>1152.62</ele>
<time>2024-08-19T09:18:09.000Z</time>
</trkpt>
<trkpt lat="41.8012083" lon="13.7864350">
<ele>1154.23</ele>
<time>2024-08-19T09:18:13.000Z</time>
</trkpt>
<trkpt lat="41.8014400" lon="13.7865017">
<ele>1155.53</ele>
<time>2024-08-19T09:18:17.000Z</time>
</trkpt>
<trkpt lat="41.8016533" lon="13.7866183">
<ele>1155.34</ele>
<time>2024-08-19T09:18:21.000Z</time>
</trkpt>
<trkpt lat="41.8018600" lon="13.7867050">
<ele>1156.08</ele>
<time>2024-08-19T09:18:25.000Z</time>
</trkpt>
<trkpt lat="41.8020383" lon="13.7867700">
<ele>1157.22</ele>
<time>2024-08-19T09:18:29.000Z</time>
</trkpt>
<trkpt lat="41.8022250" lon="13.7868467">
<ele>1159.58</ele>
<time>2024-08-19T09:18:33.000Z</time>
</trkpt>
<trkpt lat="41.8024183" lon="13.7869417">
<ele>1160.29</ele>
<time>2024-08-19T09:18:37.000Z</time>
</trkpt>
<trkpt lat="41.8026067" lon="13.7870183">
<ele>1160.74</ele>
<time>2024-08-19T09:18:41.000Z</time>
</trkpt>
<trkpt lat="41.8028000" lon="13.7871233">
<ele>1160.01</ele>
<time>2024-08-19T09:18:45.000Z</time>
</trkpt>
<trkpt lat="41.8029833" lon="13.7871867">
<ele>1159.17</ele>
<time>2024-08-19T09:18:50.000Z</time>
</trkpt>
<trkpt lat="41.8031567" lon="13.7872950">
<ele>1157.46</ele>
<time>2024-08-19T09:19:02.000Z</time>
</trkpt>
<trkpt lat="41.8032683" lon="13.7875250">
<ele>1157.63</ele>
<time>2024-08-19T09:19:20.000Z</time>
</trkpt>
<trkpt lat="41.8034733" lon="13.7875817">
<ele>1154.42</ele>
<time>2024-08-19T09:19:26.000Z</time>
</trkpt>
<trkpt lat="41.8036533" lon="13.7875267">
<ele>1154.37</ele>
<time>2024-08-19T09:19:30.000Z</time>
</trkpt>
<trkpt lat="41.8038417" lon="13.7875367">
<ele>1156.07</ele>
<time>2024-08-19T09:19:40.000Z</time>
</trkpt>
<trkpt lat="41.8040217" lon="13.7875650">
<ele>1155.24</ele>
<time>2024-08-19T09:19:46.000Z</time>
</trkpt>
<trkpt lat="41.8042433" lon="13.7876050">
<ele>1156.23</ele>
<time>2024-08-19T09:19:51.000Z</time>
</trkpt>
<trkpt lat="41.8044250" lon="13.7876583">
<ele>1156.37</ele>
<time>2024-08-19T09:19:55.000Z</time>
</trkpt>
<trkpt lat="41.8046250" lon="13.7877233">
<ele>1157.82</ele>
<time>2024-08-19T09:20:00.000Z</time>
</trkpt>
<trkpt lat="41.8048567" lon="13.7877900">
<ele>1161.16</ele>
<time>2024-08-19T09:20:05.000Z</time>
</trkpt>
<trkpt lat="41.8050500" lon="13.7878650">
<ele>1162.10</ele>
<time>2024-08-19T09:20:09.000Z</time>
</trkpt>
<trkpt lat="41.8052717" lon="13.7878817">
<ele>1162.32</ele>
<time>2024-08-19T09:20:14.000Z</time>
</trkpt>
<trkpt lat="41.8054567" lon="13.7878867">
<ele>1164.31</ele>
<time>2024-08-19T09:20:18.000Z</time>
</trkpt>
<trkpt lat="41.8056733" lon="13.7879550">
<ele>1165.59</ele>
<time>2024-08-19T09:20:23.000Z</time>
</trkpt>
<trkpt lat="41.8058950" lon="13.7880300">
<ele>1163.08</ele>
<time>2024-08-19T09:20:27.000Z</time>
</trkpt>
<trkpt lat="41.8061183" lon="13.7880917">
<ele>1160.13</ele>
<time>2024-08-19T09:20:31.000Z</time>
</trkpt>
<trkpt lat="41.8063267" lon="13.7881767">
<ele>1156.83</ele>
<time>2024-08-19T09:20:35.000Z</time>
</trkpt>
<trkpt lat="41.8065350" lon="13.7882483">
<ele>1156.25</ele>
<time>2024-08-19T09:20:39.000Z</time>
</trkpt>
<trkpt lat="41.8067517" lon="13.7883350">
<ele>1156.78</ele>
<time>2024-08-19T09:20:43.000Z</time>
</trkpt>
<trkpt lat="41.8069683" lon="13.7884467">
<ele>1156.40</ele>
<time>2024-08-19T09:20:47.000Z</time>
</trkpt>
<trkpt lat="41.8070533" lon="13.7887217">
<ele>1157.85</ele>
<time>2024-08-19T09:21:00.000Z</time>
</trkpt>
<trkpt lat="41.8069883" lon="13.7889633">
<ele>1158.12</ele>
<time>2024-08-19T09:21:07.000Z</time>
</trkpt>
<trkpt lat="41.8068850" lon="13.7892167">
<ele>1158.02</ele>
<time>2024-08-19T09:21:14.000Z</time>
</trkpt>
<trkpt lat="41.8068050" lon="13.7894783">
<ele>1160.62</ele>
<time>2024-08-19T09:21:19.000Z</time>
</trkpt>
<trkpt lat="41.8067967" lon="13.7897700">
<ele>1159.28</ele>
<time>2024-08-19T09:21:23.000Z</time>
</trkpt>
<trkpt lat="41.8067917" lon="13.7900467">
<ele>1156.57</ele>
<time>2024-08-19T09:21:27.000Z</time>
</trkpt>
<trkpt lat="41.8069450" lon="13.7901917">
<ele>1165.35</ele>
<time>2024-08-19T09:21:37.000Z</time>
</trkpt>
<trkpt lat="41.8071200" lon="13.7902550">
<ele>1164.03</ele>
<time>2024-08-19T09:21:41.000Z</time>
</trkpt>
<trkpt lat="41.8073150" lon="13.7902800">
<ele>1162.49</ele>
<time>2024-08-19T09:21:46.000Z</time>
</trkpt>
<trkpt lat="41.8075033" lon="13.7902917">
<ele>1162.48</ele>
<time>2024-08-19T09:21:50.000Z</time>
</trkpt>
<trkpt lat="41.8077050" lon="13.7903333">
<ele>1163.40</ele>
<time>2024-08-19T09:21:55.000Z</time>
</trkpt>
<trkpt lat="41.8079033" lon="13.7904000">
<ele>1163.09</ele>
<time>2024-08-19T09:22:00.000Z</time>
</trkpt>
<trkpt lat="41.8080917" lon="13.7903983">
<ele>1164.22</ele>
<time>2024-08-19T09:22:06.000Z</time>
</trkpt>
<trkpt lat="41.8082900" lon="13.7904617">
<ele>1166.58</ele>
<time>2024-08-19T09:22:11.000Z</time>
</trkpt>
<trkpt lat="41.8084883" lon="13.7905250">
<ele>1168.22</ele>
<time>2024-08-19T09:22:16.000Z</time>
</trkpt>
<trkpt lat="41.8086700" lon="13.7905850">
<ele>1166.20</ele>
<time>2024-08-19T09:22:23.000Z</time>
</trkpt>
<trkpt lat="41.8088500" lon="13.7905733">
<ele>1166.21</ele>
<time>2024-08-19T09:22:33.000Z</time>
</trkpt>
<trkpt lat="41.8090517" lon="13.7905883">
<ele>1165.85</ele>
<time>2024-08-19T09:22:43.000Z</time>
</trkpt>
<trkpt lat="41.8092533" lon="13.7906883">
<ele>1166.14</ele>
<time>2024-08-19T09:22:48.000Z</time>
</trkpt>
<trkpt lat="41.8094400" lon="13.7907467">
<ele>1168.61</ele>
<time>2024-08-19T09:22:53.000Z</time>
</trkpt>
<trkpt lat="41.8096517" lon="13.7907833">
<ele>1170.90</ele>
<time>2024-08-19T09:22:58.000Z</time>
</trkpt>
<trkpt lat="41.8098383" lon="13.7908117">
<ele>1172.79</ele>
<time>2024-08-19T09:23:02.000Z</time>
</trkpt>
<trkpt lat="41.8100567" lon="13.7908517">
<ele>1174.58</ele>
<time>2024-08-19T09:23:07.000Z</time>
</trkpt>
<trkpt lat="41.8102517" lon="13.7909333">
<ele>1176.01</ele>
<time>2024-08-19T09:23:12.000Z</time>
</trkpt>
<trkpt lat="41.8104567" lon="13.7910017">
<ele>1178.11</ele>
<time>2024-08-19T09:23:17.000Z</time>
</trkpt>
<trkpt lat="41.8106533" lon="13.7910400">
<ele>1179.16</ele>
<time>2024-08-19T09:23:21.000Z</time>
</trkpt>
<trkpt lat="41.8108433" lon="13.7911033">
<ele>1177.91</ele>
<time>2024-08-19T09:23:25.000Z</time>
</trkpt>
<trkpt lat="41.8110233" lon="13.7911333">
<ele>1178.96</ele>
<time>2024-08-19T09:23:29.000Z</time>
</trkpt>
<trkpt lat="41.8112083" lon="13.7911600">
<ele>1178.63</ele>
<time>2024-08-19T09:23:33.000Z</time>
</trkpt>
<trkpt lat="41.8114317" lon="13.7911817">
<ele>1177.69</ele>
<time>2024-08-19T09:23:38.000Z</time>
</trkpt>
<trkpt lat="41.8116433" lon="13.7911833">
<ele>1175.25</ele>
<time>2024-08-19T09:23:43.000Z</time>
</trkpt>
<trkpt lat="41.8118233" lon="13.7912017">
<ele>1176.20</ele>
<time>2024-08-19T09:23:47.000Z</time>
</trkpt>
<trkpt lat="41.8120150" lon="13.7911350">
<ele>1176.82</ele>
<time>2024-08-19T09:23:51.000Z</time>
</trkpt>
<trkpt lat="41.8122117" lon="13.7910900">
<ele>1177.95</ele>
<time>2024-08-19T09:23:55.000Z</time>
</trkpt>
<trkpt lat="41.8124317" lon="13.7910783">
<ele>1180.05</ele>
<time>2024-08-19T09:24:00.000Z</time>
</trkpt>
<trkpt lat="41.8126467" lon="13.7910817">
<ele>1180.30</ele>
<time>2024-08-19T09:24:05.000Z</time>
</trkpt>
<trkpt lat="41.8128367" lon="13.7910483">
<ele>1180.61</ele>
<time>2024-08-19T09:24:09.000Z</time>
</trkpt>
<trkpt lat="41.8130517" lon="13.7910550">
<ele>1180.17</ele>
<time>2024-08-19T09:24:14.000Z</time>
</trkpt>
<trkpt lat="41.8132633" lon="13.7910350">
<ele>1178.28</ele>
<time>2024-08-19T09:24:19.000Z</time>
</trkpt>
<trkpt lat="41.8134617" lon="13.7909717">
<ele>1177.37</ele>
<time>2024-08-19T09:24:24.000Z</time>
</trkpt>
<trkpt lat="41.8136400" lon="13.7909117">
<ele>1176.38</ele>
<time>2024-08-19T09:24:28.000Z</time>
</trkpt>
<trkpt lat="41.8138467" lon="13.7908467">
<ele>1174.92</ele>
<time>2024-08-19T09:24:33.000Z</time>
</trkpt>
<trkpt lat="41.8140400" lon="13.7907817">
<ele>1173.46</ele>
<time>2024-08-19T09:24:37.000Z</time>
</trkpt>
<trkpt lat="41.8142467" lon="13.7907233">
<ele>1173.05</ele>
<time>2024-08-19T09:24:42.000Z</time>
</trkpt>
<trkpt lat="41.8144217" lon="13.7906667">
<ele>1173.66</ele>
<time>2024-08-19T09:24:46.000Z</time>
</trkpt>
<trkpt lat="41.8146317" lon="13.7906717">
<ele>1172.86</ele>
<time>2024-08-19T09:24:51.000Z</time>
</trkpt>
<trkpt lat="41.8148533" lon="13.7906567">
<ele>1172.61</ele>
<time>2024-08-19T09:24:56.000Z</time>
</trkpt>
<trkpt lat="41.8150350" lon="13.7906233">
<ele>1172.58</ele>
<time>2024-08-19T09:25:00.000Z</time>
</trkpt>
<trkpt lat="41.8152483" lon="13.7905600">
<ele>1174.53</ele>
<time>2024-08-19T09:25:05.000Z</time>
</trkpt>
<trkpt lat="41.8154700" lon="13.7905250">
<ele>1174.44</ele>
<time>2024-08-19T09:25:10.000Z</time>
</trkpt>
<trkpt lat="41.8156583" lon="13.7905467">
<ele>1172.14</ele>
<time>2024-08-19T09:25:14.000Z</time>
</trkpt>
<trkpt lat="41.8158417" lon="13.7905250">
<ele>1171.45</ele>
<time>2024-08-19T09:25:18.000Z</time>
</trkpt>
<trkpt lat="41.8160250" lon="13.7905083">
<ele>1171.07</ele>
<time>2024-08-19T09:25:22.000Z</time>
</trkpt>
<trkpt lat="41.8162450" lon="13.7904800">
<ele>1169.86</ele>
<time>2024-08-19T09:25:27.000Z</time>
</trkpt>
<trkpt lat="41.8164433" lon="13.7904500">
<ele>1170.05</ele>
<time>2024-08-19T09:25:32.000Z</time>
</trkpt>
<trkpt lat="41.8166417" lon="13.7904183">
<ele>1169.54</ele>
<time>2024-08-19T09:25:37.000Z</time>
</trkpt>
<trkpt lat="41.8168383" lon="13.7903933">
<ele>1168.86</ele>
<time>2024-08-19T09:25:42.000Z</time>
</trkpt>
<trkpt lat="41.8170350" lon="13.7903617">
<ele>1169.82</ele>
<time>2024-08-19T09:25:47.000Z</time>
</trkpt>
<trkpt lat="41.8172283" lon="13.7903100">
<ele>1170.71</ele>
<time>2024-08-19T09:25:52.000Z</time>
</trkpt>
<trkpt lat="41.8174083" lon="13.7902867">
<ele>1172.45</ele>
<time>2024-08-19T09:25:57.000Z</time>
</trkpt>
<trkpt lat="41.8175983" lon="13.7902467">
<ele>1172.99</ele>
<time>2024-08-19T09:26:03.000Z</time>
</trkpt>
<trkpt lat="41.8178000" lon="13.7902067">
<ele>1171.73</ele>
<time>2024-08-19T09:26:09.000Z</time>
</trkpt>
<trkpt lat="41.8179983" lon="13.7901417">
<ele>1175.01</ele>
<time>2024-08-19T09:26:16.000Z</time>
</trkpt>
<trkpt lat="41.8181567" lon="13.7900250">
<ele>1176.35</ele>
<time>2024-08-19T09:26:21.000Z</time>
</trkpt>
<trkpt lat="41.8183050" lon="13.7898600">
<ele>1176.52</ele>
<time>2024-08-19T09:26:26.000Z</time>
</trkpt>
<trkpt lat="41.8184817" lon="13.7897250">
<ele>1175.56</ele>
<time>2024-08-19T09:26:31.000Z</time>
</trkpt>
<trkpt lat="41.8186883" lon="13.7896583">
<ele>1177.88</ele>
<time>2024-08-19T09:26:37.000Z</time>
</trkpt>
<trkpt lat="41.8189000" lon="13.7896667">
<ele>1179.81</ele>
<time>2024-08-19T09:26:43.000Z</time>
</trkpt>
<trkpt lat="41.8191150" lon="13.7897183">
<ele>1182.75</ele>
<time>2024-08-19T09:26:48.000Z</time>
</trkpt>
<trkpt lat="41.8192950" lon="13.7897400">
<ele>1181.94</ele>
<time>2024-08-19T09:26:52.000Z</time>
</trkpt>
<trkpt lat="41.8195100" lon="13.7897850">
<ele>1178.73</ele>
<time>2024-08-19T09:26:57.000Z</time>
</trkpt>
<trkpt lat="41.8196933" lon="13.7897650">
<ele>1179.88</ele>
<time>2024-08-19T09:27:02.000Z</time>
</trkpt>
<trkpt lat="41.8198933" lon="13.7897283">
<ele>1178.30</ele>
<time>2024-08-19T09:27:07.000Z</time>
</trkpt>
<trkpt lat="41.8200950" lon="13.7897483">
<ele>1176.90</ele>
<time>2024-08-19T09:27:12.000Z</time>
</trkpt>
<trkpt lat="41.8202800" lon="13.7898500">
<ele>1176.92</ele>
<time>2024-08-19T09:27:17.000Z</time>
</trkpt>
<trkpt lat="41.8204433" lon="13.7899967">
<ele>1177.10</ele>
<time>2024-08-19T09:27:22.000Z</time>
</trkpt>
<trkpt lat="41.8206167" lon="13.7901150">
<ele>1177.39</ele>
<time>2024-08-19T09:27:27.000Z</time>
</trkpt>
<trkpt lat="41.8208100" lon="13.7901500">
<ele>1178.12</ele>
<time>2024-08-19T09:27:32.000Z</time>
</trkpt>
<trkpt lat="41.8210283" lon="13.7901350">
<ele>1178.12</ele>
<time>2024-08-19T09:27:37.000Z</time>
</trkpt>
<trkpt lat="41.8212417" lon="13.7900867">
<ele>1177.73</ele>
<time>2024-08-19T09:27:42.000Z</time>
</trkpt>
<trkpt lat="41.8214267" lon="13.7900333">
<ele>1177.58</ele>
<time>2024-08-19T09:27:46.000Z</time>
</trkpt>
<trkpt lat="41.8216400" lon="13.7899517">
<ele>1179.28</ele>
<time>2024-08-19T09:27:51.000Z</time>
</trkpt>
<trkpt lat="41.8218400" lon="13.7898867">
<ele>1179.50</ele>
<time>2024-08-19T09:27:56.000Z</time>
</trkpt>
<trkpt lat="41.8220250" lon="13.7898850">
<ele>1178.37</ele>
<time>2024-08-19T09:28:00.000Z</time>
</trkpt>
<trkpt lat="41.8222350" lon="13.7898967">
<ele>1178.75</ele>
<time>2024-08-19T09:28:05.000Z</time>
</trkpt>
<trkpt lat="41.8224200" lon="13.7899133">
<ele>1181.48</ele>
<time>2024-08-19T09:28:10.000Z</time>
</trkpt>
<trkpt lat="41.8226317" lon="13.7899367">
<ele>1182.66</ele>
<time>2024-08-19T09:28:15.000Z</time>
</trkpt>
<trkpt lat="41.8228383" lon="13.7898617">
<ele>1181.78</ele>
<time>2024-08-19T09:28:20.000Z</time>
</trkpt>
<trkpt lat="41.8230350" lon="13.7897500">
<ele>1180.94</ele>
<time>2024-08-19T09:28:25.000Z</time>
</trkpt>
<trkpt lat="41.8232350" lon="13.7897117">
<ele>1183.26</ele>
<time>2024-08-19T09:28:30.000Z</time>
</trkpt>
<trkpt lat="41.8234433" lon="13.7897017">
<ele>1186.72</ele>
<time>2024-08-19T09:28:35.000Z</time>
</trkpt>
<trkpt lat="41.8236483" lon="13.7896700">
<ele>1186.61</ele>
<time>2024-08-19T09:28:39.000Z</time>
</trkpt>
<trkpt lat="41.8238667" lon="13.7896183">
<ele>1185.62</ele>
<time>2024-08-19T09:28:44.000Z</time>
</trkpt>
<trkpt lat="41.8240683" lon="13.7896100">
<ele>1184.72</ele>
<time>2024-08-19T09:28:48.000Z</time>
</trkpt>
<trkpt lat="41.8242983" lon="13.7896433">
<ele>1185.82</ele>
<time>2024-08-19T09:28:53.000Z</time>
</trkpt>
<trkpt lat="41.8244783" lon="13.7897050">
<ele>1184.61</ele>
<time>2024-08-19T09:28:57.000Z</time>
</trkpt>
<trkpt lat="41.8246800" lon="13.7897233">
<ele>1186.78</ele>
<time>2024-08-19T09:29:02.000Z</time>
</trkpt>
<trkpt lat="41.8249017" lon="13.7896767">
<ele>1188.24</ele>
<time>2024-08-19T09:29:07.000Z</time>
</trkpt>
<trkpt lat="41.8250900" lon="13.7896383">
<ele>1188.13</ele>
<time>2024-08-19T09:29:11.000Z</time>
</trkpt>
<trkpt lat="41.8252800" lon="13.7895967">
<ele>1185.84</ele>
<time>2024-08-19T09:29:15.000Z</time>
</trkpt>
<trkpt lat="41.8254583" lon="13.7895467">
<ele>1185.38</ele>
<time>2024-08-19T09:29:19.000Z</time>
</trkpt>
<trkpt lat="41.8256767" lon="13.7895000">
<ele>1184.87</ele>
<time>2024-08-19T09:29:24.000Z</time>
</trkpt>
<trkpt lat="41.8258983" lon="13.7894567">
<ele>1184.56</ele>
<time>2024-08-19T09:29:29.000Z</time>
</trkpt>
<trkpt lat="41.8260850" lon="13.7894100">
<ele>1185.50</ele>
<time>2024-08-19T09:29:33.000Z</time>
</trkpt>
<trkpt lat="41.8262650" lon="13.7893617">
<ele>1185.77</ele>
<time>2024-08-19T09:29:37.000Z</time>
</trkpt>
<trkpt lat="41.8264783" lon="13.7893133">
<ele>1187.13</ele>
<time>2024-08-19T09:29:42.000Z</time>
</trkpt>
<trkpt lat="41.8266967" lon="13.7892700">
<ele>1187.02</ele>
<time>2024-08-19T09:29:47.000Z</time>
</trkpt>
<trkpt lat="41.8269033" lon="13.7891983">
<ele>1186.75</ele>
<time>2024-08-19T09:29:52.000Z</time>
</trkpt>
<trkpt lat="41.8271100" lon="13.7891450">
<ele>1187.89</ele>
<time>2024-08-19T09:29:57.000Z</time>
</trkpt>
<trkpt lat="41.8273300" lon="13.7891017">
<ele>1189.87</ele>
<time>2024-08-19T09:30:02.000Z</time>
</trkpt>
<trkpt lat="41.8275517" lon="13.7890500">
<ele>1190.22</ele>
<time>2024-08-19T09:30:07.000Z</time>
</trkpt>
<trkpt lat="41.8277600" lon="13.7889883">
<ele>1189.90</ele>
<time>2024-08-19T09:30:12.000Z</time>
</trkpt>
<trkpt lat="41.8279783" lon="13.7889300">
<ele>1191.11</ele>
<time>2024-08-19T09:30:17.000Z</time>
</trkpt>
<trkpt lat="41.8281917" lon="13.7888700">
<ele>1191.40</ele>
<time>2024-08-19T09:30:22.000Z</time>
</trkpt>
<trkpt lat="41.8284100" lon="13.7888217">
<ele>1191.40</ele>
<time>2024-08-19T09:30:27.000Z</time>
</trkpt>
<trkpt lat="41.8286217" lon="13.7887517">
<ele>1192.34</ele>
<time>2024-08-19T09:30:32.000Z</time>
</trkpt>
<trkpt lat="41.8288400" lon="13.7886950">
<ele>1192.15</ele>
<time>2024-08-19T09:30:37.000Z</time>
</trkpt>
<trkpt lat="41.8290583" lon="13.7886300">
<ele>1192.43</ele>
<time>2024-08-19T09:30:42.000Z</time>
</trkpt>
<trkpt lat="41.8292367" lon="13.7885750">
<ele>1193.39</ele>
<time>2024-08-19T09:30:46.000Z</time>
</trkpt>
<trkpt lat="41.8294150" lon="13.7885217">
<ele>1193.50</ele>
<time>2024-08-19T09:30:50.000Z</time>
</trkpt>
<trkpt lat="41.8296083" lon="13.7884850">
<ele>1193.54</ele>
<time>2024-08-19T09:30:54.000Z</time>
</trkpt>
<trkpt lat="41.8297883" lon="13.7884233">
<ele>1192.99</ele>
<time>2024-08-19T09:30:58.000Z</time>
</trkpt>
<trkpt lat="41.8300117" lon="13.7883583">
<ele>1193.90</ele>
<time>2024-08-19T09:31:03.000Z</time>
</trkpt>
<trkpt lat="41.8301967" lon="13.7883083">
<ele>1193.48</ele>
<time>2024-08-19T09:31:07.000Z</time>
</trkpt>
<trkpt lat="41.8303833" lon="13.7882617">
<ele>1194.26</ele>
<time>2024-08-19T09:31:11.000Z</time>
</trkpt>
<trkpt lat="41.8305667" lon="13.7882200">
<ele>1194.43</ele>
<time>2024-08-19T09:31:15.000Z</time>
</trkpt>
<trkpt lat="41.8307833" lon="13.7881600">
<ele>1194.76</ele>
<time>2024-08-19T09:31:20.000Z</time>
</trkpt>
<trkpt lat="41.8309650" lon="13.7881067">
<ele>1195.33</ele>
<time>2024-08-19T09:31:24.000Z</time>
</trkpt>
<trkpt lat="41.8311467" lon="13.7880583">
<ele>1195.69</ele>
<time>2024-08-19T09:31:28.000Z</time>
</trkpt>
<trkpt lat="41.8313283" lon="13.7880183">
<ele>1195.68</ele>
<time>2024-08-19T09:31:32.000Z</time>
</trkpt>
<trkpt lat="41.8315050" lon="13.7879667">
<ele>1195.32</ele>
<time>2024-08-19T09:31:36.000Z</time>
</trkpt>
<trkpt lat="41.8316867" lon="13.7879017">
<ele>1195.83</ele>
<time>2024-08-19T09:31:40.000Z</time>
</trkpt>
<trkpt lat="41.8318867" lon="13.7878383">
<ele>1196.33</ele>
<time>2024-08-19T09:31:45.000Z</time>
</trkpt>
<trkpt lat="41.8320650" lon="13.7877900">
<ele>1196.25</ele>
<time>2024-08-19T09:31:49.000Z</time>
</trkpt>
<trkpt lat="41.8322433" lon="13.7877533">
<ele>1197.58</ele>
<time>2024-08-19T09:31:53.000Z</time>
</trkpt>
<trkpt lat="41.8324250" lon="13.7877000">
<ele>1198.32</ele>
<time>2024-08-19T09:31:57.000Z</time>
</trkpt>
<trkpt lat="41.8326317" lon="13.7876283">
<ele>1198.02</ele>
<time>2024-08-19T09:32:02.000Z</time>
</trkpt>
<trkpt lat="41.8328183" lon="13.7876000">
<ele>1197.54</ele>
<time>2024-08-19T09:32:06.000Z</time>
</trkpt>
<trkpt lat="41.8330117" lon="13.7875583">
<ele>1196.78</ele>
<time>2024-08-19T09:32:10.000Z</time>
</trkpt>
<trkpt lat="41.8332300" lon="13.7875000">
<ele>1194.93</ele>
<time>2024-08-19T09:32:15.000Z</time>
</trkpt>
<trkpt lat="41.8334133" lon="13.7874750">
<ele>1196.28</ele>
<time>2024-08-19T09:32:19.000Z</time>
</trkpt>
<trkpt lat="41.8336033" lon="13.7874283">
<ele>1196.87</ele>
<time>2024-08-19T09:32:23.000Z</time>
</trkpt>
<trkpt lat="41.8337950" lon="13.7873767">
<ele>1196.40</ele>
<time>2024-08-19T09:32:27.000Z</time>
</trkpt>
<trkpt lat="41.8339833" lon="13.7873383">
<ele>1196.03</ele>
<time>2024-08-19T09:32:31.000Z</time>
</trkpt>
<trkpt lat="41.8341883" lon="13.7872983">
<ele>1196.01</ele>
<time>2024-08-19T09:32:35.000Z</time>
</trkpt>
<trkpt lat="41.8343700" lon="13.7872567">
<ele>1198.90</ele>
<time>2024-08-19T09:32:39.000Z</time>
</trkpt>
<trkpt lat="41.8345817" lon="13.7872133">
<ele>1199.27</ele>
<time>2024-08-19T09:32:44.000Z</time>
</trkpt>
<trkpt lat="41.8348017" lon="13.7871683">
<ele>1200.29</ele>
<time>2024-08-19T09:32:49.000Z</time>
</trkpt>
<trkpt lat="41.8349850" lon="13.7871383">
<ele>1201.77</ele>
<time>2024-08-19T09:32:53.000Z</time>
</trkpt>
<trkpt lat="41.8351667" lon="13.7870967">
<ele>1200.82</ele>
<time>2024-08-19T09:32:57.000Z</time>
</trkpt>
<trkpt lat="41.8353783" lon="13.7870517">
<ele>1201.36</ele>
<time>2024-08-19T09:33:02.000Z</time>
</trkpt>
<trkpt lat="41.8355733" lon="13.7870050">
<ele>1202.42</ele>
<time>2024-08-19T09:33:07.000Z</time>
</trkpt>
<trkpt lat="41.8357583" lon="13.7869700">
<ele>1202.37</ele>
<time>2024-08-19T09:33:12.000Z</time>
</trkpt>
<trkpt lat="41.8359633" lon="13.7868967">
<ele>1203.58</ele>
<time>2024-08-19T09:33:18.000Z</time>
</trkpt>
<trkpt lat="41.8361450" lon="13.7868367">
<ele>1203.32</ele>
<time>2024-08-19T09:33:23.000Z</time>
</trkpt>
<trkpt lat="41.8363367" lon="13.7867750">
<ele>1202.27</ele>
<time>2024-08-19T09:33:28.000Z</time>
</trkpt>
<trkpt lat="41.8365133" lon="13.7867233">
<ele>1202.26</ele>
<time>2024-08-19T09:33:33.000Z</time>
</trkpt>
<trkpt lat="41.8366950" lon="13.7866583">
<ele>1203.10</ele>
<time>2024-08-19T09:33:38.000Z</time>
</trkpt>
<trkpt lat="41.8368717" lon="13.7865950">
<ele>1203.02</ele>
<time>2024-08-19T09:33:43.000Z</time>
</trkpt>
<trkpt lat="41.8370617" lon="13.7865350">
<ele>1202.90</ele>
<time>2024-08-19T09:33:48.000Z</time>
</trkpt>
<trkpt lat="41.8372583" lon="13.7864650">
<ele>1203.08</ele>
<time>2024-08-19T09:33:53.000Z</time>
</trkpt>
<trkpt lat="41.8374467" lon="13.7864017">
<ele>1203.01</ele>
<time>2024-08-19T09:33:58.000Z</time>
</trkpt>
<trkpt lat="41.8376433" lon="13.7863417">
<ele>1202.73</ele>
<time>2024-08-19T09:34:03.000Z</time>
</trkpt>
<trkpt lat="41.8378450" lon="13.7862767">
<ele>1203.43</ele>
<time>2024-08-19T09:34:08.000Z</time>
</trkpt>
<trkpt lat="41.8380483" lon="13.7862083">
<ele>1205.72</ele>
<time>2024-08-19T09:34:13.000Z</time>
</trkpt>
<trkpt lat="41.8382250" lon="13.7861483">
<ele>1205.84</ele>
<time>2024-08-19T09:34:17.000Z</time>
</trkpt>
<trkpt lat="41.8384333" lon="13.7860867">
<ele>1205.49</ele>
<time>2024-08-19T09:34:22.000Z</time>
</trkpt>
<trkpt lat="41.8386333" lon="13.7860183">
<ele>1207.39</ele>
<time>2024-08-19T09:34:27.000Z</time>
</trkpt>
<trkpt lat="41.8388333" lon="13.7859433">
<ele>1208.15</ele>
<time>2024-08-19T09:34:32.000Z</time>
</trkpt>
<trkpt lat="41.8390517" lon="13.7858850">
<ele>1207.74</ele>
<time>2024-08-19T09:34:37.000Z</time>
</trkpt>
<trkpt lat="41.8392700" lon="13.7858283">
<ele>1206.93</ele>
<time>2024-08-19T09:34:42.000Z</time>
</trkpt>
<trkpt lat="41.8394850" lon="13.7857817">
<ele>1207.41</ele>
<time>2024-08-19T09:34:47.000Z</time>
</trkpt>
<trkpt lat="41.8396933" lon="13.7857167">
<ele>1208.83</ele>
<time>2024-08-19T09:34:52.000Z</time>
</trkpt>
<trkpt lat="41.8398900" lon="13.7856700">
<ele>1210.59</ele>
<time>2024-08-19T09:34:57.000Z</time>
</trkpt>
<trkpt lat="41.8400933" lon="13.7856400">
<ele>1210.32</ele>
<time>2024-08-19T09:35:02.000Z</time>
</trkpt>
<trkpt lat="41.8402717" lon="13.7855983">
<ele>1211.88</ele>
<time>2024-08-19T09:35:07.000Z</time>
</trkpt>
<trkpt lat="41.8404600" lon="13.7855883">
<ele>1214.15</ele>
<time>2024-08-19T09:35:12.000Z</time>
</trkpt>
<trkpt lat="41.8406667" lon="13.7855833">
<ele>1213.14</ele>
<time>2024-08-19T09:35:18.000Z</time>
</trkpt>
<trkpt lat="41.8408467" lon="13.7855367">
<ele>1212.54</ele>
<time>2024-08-19T09:35:24.000Z</time>
</trkpt>
<trkpt lat="41.8410433" lon="13.7854467">
<ele>1212.38</ele>
<time>2024-08-19T09:35:31.000Z</time>
</trkpt>
<trkpt lat="41.8412150" lon="13.7853617">
<ele>1214.24</ele>
<time>2024-08-19T09:35:38.000Z</time>
</trkpt>
<trkpt lat="41.8414050" lon="13.7852700">
<ele>1216.16</ele>
<time>2024-08-19T09:35:45.000Z</time>
</trkpt>
<trkpt lat="41.8415750" lon="13.7851700">
<ele>1215.28</ele>
<time>2024-08-19T09:35:52.000Z</time>
</trkpt>
<trkpt lat="41.8417617" lon="13.7850650">
<ele>1216.40</ele>
<time>2024-08-19T09:36:00.000Z</time>
</trkpt>
<trkpt lat="41.8419333" lon="13.7849850">
<ele>1217.26</ele>
<time>2024-08-19T09:36:07.000Z</time>
</trkpt>
<trkpt lat="41.8421217" lon="13.7848783">
<ele>1218.44</ele>
<time>2024-08-19T09:36:14.000Z</time>
</trkpt>
<trkpt lat="41.8423033" lon="13.7847750">
<ele>1218.61</ele>
<time>2024-08-19T09:36:21.000Z</time>
</trkpt>
<trkpt lat="41.8424767" lon="13.7846850">
<ele>1218.08</ele>
<time>2024-08-19T09:36:27.000Z</time>
</trkpt>
<trkpt lat="41.8426633" lon="13.7845833">
<ele>1219.34</ele>
<time>2024-08-19T09:36:34.000Z</time>
</trkpt>
<trkpt lat="41.8428417" lon="13.7844683">
<ele>1219.91</ele>
<time>2024-08-19T09:36:41.000Z</time>
</trkpt>
<trkpt lat="41.8430067" lon="13.7843617">
<ele>1220.05</ele>
<time>2024-08-19T09:36:47.000Z</time>
</trkpt>
<trkpt lat="41.8431900" lon="13.7842233">
<ele>1222.21</ele>
<time>2024-08-19T09:36:54.000Z</time>
</trkpt>
<trkpt lat="41.8433583" lon="13.7840500">
<ele>1224.27</ele>
<time>2024-08-19T09:37:00.000Z</time>
</trkpt>
<trkpt lat="41.8435067" lon="13.7838883">
<ele>1223.13</ele>
<time>2024-08-19T09:37:05.000Z</time>
</trkpt>
<trkpt lat="41.8436567" lon="13.7837433">
<ele>1222.70</ele>
<time>2024-08-19T09:37:10.000Z</time>
</trkpt>
<trkpt lat="41.8438083" lon="13.7835517">
<ele>1223.30</ele>
<time>2024-08-19T09:37:15.000Z</time>
</trkpt>
<trkpt lat="41.8439600" lon="13.7833683">
<ele>1223.50</ele>
<time>2024-08-19T09:37:20.000Z</time>
</trkpt>
<trkpt lat="41.8441267" lon="13.7831900">
<ele>1223.05</ele>
<time>2024-08-19T09:37:25.000Z</time>
</trkpt>
<trkpt lat="41.8442933" lon="13.7830083">
<ele>1222.17</ele>
<time>2024-08-19T09:37:30.000Z</time>
</trkpt>
<trkpt lat="41.8444583" lon="13.7828300">
<ele>1221.61</ele>
<time>2024-08-19T09:37:35.000Z</time>
</trkpt>
<trkpt lat="41.8446017" lon="13.7826783">
<ele>1222.20</ele>
<time>2024-08-19T09:37:39.000Z</time>
</trkpt>
<trkpt lat="41.8447817" lon="13.7825267">
<ele>1223.08</ele>
<time>2024-08-19T09:37:44.000Z</time>
</trkpt>
<trkpt lat="41.8449333" lon="13.7823967">
<ele>1222.86</ele>
<time>2024-08-19T09:37:48.000Z</time>
</trkpt>
<trkpt lat="41.8451133" lon="13.7822333">
<ele>1222.86</ele>
<time>2024-08-19T09:37:53.000Z</time>
</trkpt>
<trkpt lat="41.8452700" lon="13.7821100">
<ele>1223.78</ele>
<time>2024-08-19T09:37:57.000Z</time>
</trkpt>
<trkpt lat="41.8454550" lon="13.7819417">
<ele>1223.87</ele>
<time>2024-08-19T09:38:02.000Z</time>
</trkpt>
<trkpt lat="41.8456350" lon="13.7817800">
<ele>1223.37</ele>
<time>2024-08-19T09:38:07.000Z</time>
</trkpt>
<trkpt lat="41.8458200" lon="13.7816167">
<ele>1222.90</ele>
<time>2024-08-19T09:38:12.000Z</time>
</trkpt>
<trkpt lat="41.8459867" lon="13.7814800">
<ele>1223.18</ele>
<time>2024-08-19T09:38:16.000Z</time>
</trkpt>
<trkpt lat="41.8461483" lon="13.7813417">
<ele>1222.37</ele>
<time>2024-08-19T09:38:20.000Z</time>
</trkpt>
<trkpt lat="41.8463083" lon="13.7811917">
<ele>1222.27</ele>
<time>2024-08-19T09:38:24.000Z</time>
</trkpt>
<trkpt lat="41.8464650" lon="13.7810667">
<ele>1222.12</ele>
<time>2024-08-19T09:38:28.000Z</time>
</trkpt>
<trkpt lat="41.8466267" lon="13.7809183">
<ele>1222.35</ele>
<time>2024-08-19T09:38:32.000Z</time>
</trkpt>
<trkpt lat="41.8467883" lon="13.7807733">
<ele>1223.35</ele>
<time>2024-08-19T09:38:36.000Z</time>
</trkpt>
<trkpt lat="41.8469733" lon="13.7806617">
<ele>1223.43</ele>
<time>2024-08-19T09:38:40.000Z</time>
</trkpt>
<trkpt lat="41.8471633" lon="13.7805750">
<ele>1222.93</ele>
<time>2024-08-19T09:38:44.000Z</time>
</trkpt>
<trkpt lat="41.8473417" lon="13.7804950">
<ele>1222.04</ele>
<time>2024-08-19T09:38:48.000Z</time>
</trkpt>
<trkpt lat="41.8475267" lon="13.7803950">
<ele>1221.65</ele>
<time>2024-08-19T09:38:52.000Z</time>
</trkpt>
<trkpt lat="41.8477117" lon="13.7803050">
<ele>1221.27</ele>
<time>2024-08-19T09:38:56.000Z</time>
</trkpt>
<trkpt lat="41.8478967" lon="13.7802117">
<ele>1220.48</ele>
<time>2024-08-19T09:39:00.000Z</time>
</trkpt>
<trkpt lat="41.8480767" lon="13.7801250">
<ele>1222.57</ele>
<time>2024-08-19T09:39:04.000Z</time>
</trkpt>
<trkpt lat="41.8482900" lon="13.7800167">
<ele>1223.81</ele>
<time>2024-08-19T09:39:09.000Z</time>
</trkpt>
<trkpt lat="41.8484583" lon="13.7799217">
<ele>1223.59</ele>
<time>2024-08-19T09:39:13.000Z</time>
</trkpt>
<trkpt lat="41.8486550" lon="13.7797933">
<ele>1223.87</ele>
<time>2024-08-19T09:39:18.000Z</time>
</trkpt>
<trkpt lat="41.8488383" lon="13.7796483">
<ele>1224.39</ele>
<time>2024-08-19T09:39:23.000Z</time>
</trkpt>
<trkpt lat="41.8490083" lon="13.7794817">
<ele>1224.85</ele>
<time>2024-08-19T09:39:28.000Z</time>
</trkpt>
<trkpt lat="41.8491733" lon="13.7792983">
<ele>1226.04</ele>
<time>2024-08-19T09:39:33.000Z</time>
</trkpt>
<trkpt lat="41.8493233" lon="13.7791000">
<ele>1227.47</ele>
<time>2024-08-19T09:39:38.000Z</time>
</trkpt>
<trkpt lat="41.8494883" lon="13.7789133">
<ele>1227.55</ele>
<time>2024-08-19T09:39:43.000Z</time>
</trkpt>
<trkpt lat="41.8496433" lon="13.7787367">
<ele>1228.61</ele>
<time>2024-08-19T09:39:48.000Z</time>
</trkpt>
<trkpt lat="41.8498017" lon="13.7785800">
<ele>1228.16</ele>
<time>2024-08-19T09:39:53.000Z</time>
</trkpt>
<trkpt lat="41.8499867" lon="13.7784333">
<ele>1227.38</ele>
<time>2024-08-19T09:39:58.000Z</time>
</trkpt>
<trkpt lat="41.8501550" lon="13.7783283">
<ele>1227.99</ele>
<time>2024-08-19T09:40:02.000Z</time>
</trkpt>
<trkpt lat="41.8503267" lon="13.7782217">
<ele>1227.27</ele>
<time>2024-08-19T09:40:06.000Z</time>
</trkpt>
<trkpt lat="41.8505017" lon="13.7781250">
<ele>1227.58</ele>
<time>2024-08-19T09:40:10.000Z</time>
</trkpt>
<trkpt lat="41.8506800" lon="13.7780167">
<ele>1228.27</ele>
<time>2024-08-19T09:40:14.000Z</time>
</trkpt>
<trkpt lat="41.8508450" lon="13.7778900">
<ele>1227.63</ele>
<time>2024-08-19T09:40:18.000Z</time>
</trkpt>
<trkpt lat="41.8510167" lon="13.7777800">
<ele>1226.67</ele>
<time>2024-08-19T09:40:22.000Z</time>
</trkpt>
<trkpt lat="41.8511867" lon="13.7776917">
<ele>1227.15</ele>
<time>2024-08-19T09:40:26.000Z</time>
</trkpt>
<trkpt lat="41.8513833" lon="13.7775933">
<ele>1233.58</ele>
<time>2024-08-19T09:40:31.000Z</time>
</trkpt>
<trkpt lat="41.8515900" lon="13.7776217">
<ele>1230.29</ele>
<time>2024-08-19T09:40:37.000Z</time>
</trkpt>
<trkpt lat="41.8517000" lon="13.7778150">
<ele>1229.66</ele>
<time>2024-08-19T09:40:43.000Z</time>
</trkpt>
<trkpt lat="41.8518100" lon="13.7780233">
<ele>1231.11</ele>
<time>2024-08-19T09:40:51.000Z</time>
</trkpt>
<trkpt lat="41.8519150" lon="13.7782500">
<ele>1232.87</ele>
<time>2024-08-19T09:40:59.000Z</time>
</trkpt>
<trkpt lat="41.8520100" lon="13.7784667">
<ele>1235.45</ele>
<time>2024-08-19T09:41:06.000Z</time>
</trkpt>
<trkpt lat="41.8521050" lon="13.7787000">
<ele>1237.89</ele>
<time>2024-08-19T09:41:14.000Z</time>
</trkpt>
<trkpt lat="41.8522150" lon="13.7789067">
<ele>1238.33</ele>
<time>2024-08-19T09:41:21.000Z</time>
</trkpt>
<trkpt lat="41.8523183" lon="13.7791167">
<ele>1242.74</ele>
<time>2024-08-19T09:41:29.000Z</time>
</trkpt>
<trkpt lat="41.8524033" lon="13.7793633">
<ele>1245.01</ele>
<time>2024-08-19T09:41:36.000Z</time>
</trkpt>
<trkpt lat="41.8524717" lon="13.7796067">
<ele>1249.00</ele>
<time>2024-08-19T09:41:44.000Z</time>
</trkpt>
<trkpt lat="41.8525283" lon="13.7798683">
<ele>1251.40</ele>
<time>2024-08-19T09:41:52.000Z</time>
</trkpt>
<trkpt lat="41.8525850" lon="13.7801017">
<ele>1251.16</ele>
<time>2024-08-19T09:42:00.000Z</time>
</trkpt>
<trkpt lat="41.8526500" lon="13.7803400">
<ele>1246.37</ele>
<time>2024-08-19T09:42:08.000Z</time>
</trkpt>
<trkpt lat="41.8526933" lon="13.7805983">
<ele>1248.50</ele>
<time>2024-08-19T09:42:16.000Z</time>
</trkpt>
<trkpt lat="41.8527383" lon="13.7808600">
<ele>1250.94</ele>
<time>2024-08-19T09:42:24.000Z</time>
</trkpt>
<trkpt lat="41.8527900" lon="13.7811017">
<ele>1249.70</ele>
<time>2024-08-19T09:42:31.000Z</time>
</trkpt>
<trkpt lat="41.8529417" lon="13.7812400">
<ele>1248.87</ele>
<time>2024-08-19T09:42:38.000Z</time>
</trkpt>
<trkpt lat="41.8531083" lon="13.7813633">
<ele>1248.37</ele>
<time>2024-08-19T09:42:46.000Z</time>
</trkpt>
<trkpt lat="41.8532517" lon="13.7815117">
<ele>1249.41</ele>
<time>2024-08-19T09:42:54.000Z</time>
</trkpt>
<trkpt lat="41.8533683" lon="13.7816967">
<ele>1248.18</ele>
<time>2024-08-19T09:43:02.000Z</time>
</trkpt>
<trkpt lat="41.8534950" lon="13.7818917">
<ele>1247.83</ele>
<time>2024-08-19T09:43:10.000Z</time>
</trkpt>
<trkpt lat="41.8536400" lon="13.7820617">
<ele>1251.44</ele>
<time>2024-08-19T09:43:18.000Z</time>
</trkpt>
<trkpt lat="41.8538217" lon="13.7821417">
<ele>1255.37</ele>
<time>2024-08-19T09:43:27.000Z</time>
</trkpt>
<trkpt lat="41.8540033" lon="13.7821517">
<ele>1256.17</ele>
<time>2024-08-19T09:43:35.000Z</time>
</trkpt>
<trkpt lat="41.8541900" lon="13.7821567">
<ele>1254.91</ele>
<time>2024-08-19T09:43:43.000Z</time>
</trkpt>
<trkpt lat="41.8543717" lon="13.7821500">
<ele>1257.42</ele>
<time>2024-08-19T09:43:51.000Z</time>
</trkpt>
<trkpt lat="41.8545683" lon="13.7821717">
<ele>1259.17</ele>
<time>2024-08-19T09:44:00.000Z</time>
</trkpt>
<trkpt lat="41.8547517" lon="13.7822567">
<ele>1262.62</ele>
<time>2024-08-19T09:44:09.000Z</time>
</trkpt>
<trkpt lat="41.8549267" lon="13.7823233">
<ele>1262.53</ele>
<time>2024-08-19T09:44:17.000Z</time>
</trkpt>
<trkpt lat="41.8551133" lon="13.7824150">
<ele>1267.89</ele>
<time>2024-08-19T09:44:26.000Z</time>
</trkpt>
<trkpt lat="41.8552983" lon="13.7825017">
<ele>1266.96</ele>
<time>2024-08-19T09:44:33.000Z</time>
</trkpt>
<trkpt lat="41.8554717" lon="13.7826367">
<ele>1264.74</ele>
<time>2024-08-19T09:44:41.000Z</time>
</trkpt>
<trkpt lat="41.8556533" lon="13.7827083">
<ele>1262.86</ele>
<time>2024-08-19T09:44:49.000Z</time>
</trkpt>
<trkpt lat="41.8558500" lon="13.7826833">
<ele>1262.93</ele>
<time>2024-08-19T09:44:57.000Z</time>
</trkpt>
<trkpt lat="41.8560200" lon="13.7825883">
<ele>1264.64</ele>
<time>2024-08-19T09:45:05.000Z</time>
</trkpt>
<trkpt lat="41.8561633" lon="13.7823950">
<ele>1264.03</ele>
<time>2024-08-19T09:45:13.000Z</time>
</trkpt>
<trkpt lat="41.8562750" lon="13.7821817">
<ele>1265.77</ele>
<time>2024-08-19T09:45:22.000Z</time>
</trkpt>
<trkpt lat="41.8564217" lon="13.7819983">
<ele>1268.89</ele>
<time>2024-08-19T09:45:31.000Z</time>
</trkpt>
<trkpt lat="41.8565983" lon="13.7819467">
<ele>1268.41</ele>
<time>2024-08-19T09:45:39.000Z</time>
</trkpt>
<trkpt lat="41.8567983" lon="13.7819217">
<ele>1269.78</ele>
<time>2024-08-19T09:45:47.000Z</time>
</trkpt>
<trkpt lat="41.8569783" lon="13.7819117">
<ele>1269.86</ele>
<time>2024-08-19T09:45:54.000Z</time>
</trkpt>
<trkpt lat="41.8571617" lon="13.7818750">
<ele>1271.85</ele>
<time>2024-08-19T09:46:02.000Z</time>
</trkpt>
<trkpt lat="41.8573550" lon="13.7818550">
<ele>1276.46</ele>
<time>2024-08-19T09:46:11.000Z</time>
</trkpt>
<trkpt lat="41.8575550" lon="13.7818167">
<ele>1277.63</ele>
<time>2024-08-19T09:46:20.000Z</time>
</trkpt>
<trkpt lat="41.8577533" lon="13.7818183">
<ele>1277.53</ele>
<time>2024-08-19T09:46:28.000Z</time>
</trkpt>
<trkpt lat="41.8579400" lon="13.7818650">
<ele>1279.77</ele>
<time>2024-08-19T09:46:36.000Z</time>
</trkpt>
<trkpt lat="41.8581333" lon="13.7819067">
<ele>1281.54</ele>
<time>2024-08-19T09:46:45.000Z</time>
</trkpt>
<trkpt lat="41.8583167" lon="13.7819483">
<ele>1286.10</ele>
<time>2024-08-19T09:46:54.000Z</time>
</trkpt>
<trkpt lat="41.8585083" lon="13.7819583">
<ele>1282.93</ele>
<time>2024-08-19T09:47:01.000Z</time>
</trkpt>
<trkpt lat="41.8586833" lon="13.7819017">
<ele>1281.61</ele>
<time>2024-08-19T09:47:08.000Z</time>
</trkpt>
<trkpt lat="41.8588567" lon="13.7818017">
<ele>1282.40</ele>
<time>2024-08-19T09:47:16.000Z</time>
</trkpt>
<trkpt lat="41.8590367" lon="13.7817000">
<ele>1285.63</ele>
<time>2024-08-19T09:47:24.000Z</time>
</trkpt>
<trkpt lat="41.8591917" lon="13.7815517">
<ele>1282.88</ele>
<time>2024-08-19T09:47:31.000Z</time>
</trkpt>
<trkpt lat="41.8593083" lon="13.7813517">
<ele>1282.47</ele>
<time>2024-08-19T09:47:39.000Z</time>
</trkpt>
<trkpt lat="41.8591200" lon="13.7813000">
<ele>1294.08</ele>
<time>2024-08-19T09:47:59.000Z</time>
</trkpt>
<trkpt lat="41.8589767" lon="13.7814783">
<ele>1302.25</ele>
<time>2024-08-19T09:48:07.000Z</time>
</trkpt>
<trkpt lat="41.8588250" lon="13.7816200">
<ele>1302.99</ele>
<time>2024-08-19T09:48:15.000Z</time>
</trkpt>
<trkpt lat="41.8586367" lon="13.7816833">
<ele>1300.64</ele>
<time>2024-08-19T09:48:22.000Z</time>
</trkpt>
<trkpt lat="41.8584433" lon="13.7816350">
<ele>1297.35</ele>
<time>2024-08-19T09:48:29.000Z</time>
</trkpt>
<trkpt lat="41.8582583" lon="13.7815483">
<ele>1296.53</ele>
<time>2024-08-19T09:48:37.000Z</time>
</trkpt>
<trkpt lat="41.8580950" lon="13.7814367">
<ele>1297.30</ele>
<time>2024-08-19T09:48:45.000Z</time>
</trkpt>
<trkpt lat="41.8579183" lon="13.7813417">
<ele>1298.89</ele>
<time>2024-08-19T09:48:53.000Z</time>
</trkpt>
<trkpt lat="41.8577433" lon="13.7812117">
<ele>1301.00</ele>
<time>2024-08-19T09:49:01.000Z</time>
</trkpt>
<trkpt lat="41.8575817" lon="13.7810550">
<ele>1298.61</ele>
<time>2024-08-19T09:49:09.000Z</time>
</trkpt>
<trkpt lat="41.8574367" lon="13.7808967">
<ele>1300.39</ele>
<time>2024-08-19T09:49:17.000Z</time>
</trkpt>
<trkpt lat="41.8572717" lon="13.7807450">
<ele>1301.60</ele>
<time>2024-08-19T09:49:26.000Z</time>
</trkpt>
<trkpt lat="41.8570850" lon="13.7807017">
<ele>1300.14</ele>
<time>2024-08-19T09:49:34.000Z</time>
</trkpt>
<trkpt lat="41.8568900" lon="13.7806933">
<ele>1304.28</ele>
<time>2024-08-19T09:49:42.000Z</time>
</trkpt>
<trkpt lat="41.8566933" lon="13.7806650">
<ele>1307.22</ele>
<time>2024-08-19T09:49:51.000Z</time>
</trkpt>
<trkpt lat="41.8565067" lon="13.7806067">
<ele>1305.42</ele>
<time>2024-08-19T09:49:59.000Z</time>
</trkpt>
<trkpt lat="41.8563067" lon="13.7806567">
<ele>1306.57</ele>
<time>2024-08-19T09:50:07.000Z</time>
</trkpt>
<trkpt lat="41.8561150" lon="13.7806967">
<ele>1308.48</ele>
<time>2024-08-19T09:50:15.000Z</time>
</trkpt>
<trkpt lat="41.8559333" lon="13.7806717">
<ele>1308.01</ele>
<time>2024-08-19T09:50:23.000Z</time>
</trkpt>
<trkpt lat="41.8557500" lon="13.7806733">
<ele>1311.18</ele>
<time>2024-08-19T09:50:31.000Z</time>
</trkpt>
<trkpt lat="41.8555700" lon="13.7805717">
<ele>1311.63</ele>
<time>2024-08-19T09:50:39.000Z</time>
</trkpt>
<trkpt lat="41.8554050" lon="13.7804533">
<ele>1309.28</ele>
<time>2024-08-19T09:50:47.000Z</time>
</trkpt>
<trkpt lat="41.8552417" lon="13.7803050">
<ele>1310.50</ele>
<time>2024-08-19T09:50:56.000Z</time>
</trkpt>
<trkpt lat="41.8550967" lon="13.7801500">
<ele>1313.18</ele>
<time>2024-08-19T09:51:04.000Z</time>
</trkpt>
<trkpt lat="41.8549767" lon="13.7799567">
<ele>1314.40</ele>
<time>2024-08-19T09:51:12.000Z</time>
</trkpt>
<trkpt lat="41.8548550" lon="13.7797617">
<ele>1313.56</ele>
<time>2024-08-19T09:51:20.000Z</time>
</trkpt>
<trkpt lat="41.8547567" lon="13.7795450">
<ele>1314.41</ele>
<time>2024-08-19T09:51:28.000Z</time>
</trkpt>
<trkpt lat="41.8546500" lon="13.7793433">
<ele>1317.22</ele>
<time>2024-08-19T09:51:36.000Z</time>
</trkpt>
<trkpt lat="41.8545583" lon="13.7791350">
<ele>1318.95</ele>
<time>2024-08-19T09:51:44.000Z</time>
</trkpt>
<trkpt lat="41.8544783" lon="13.7788917">
<ele>1316.49</ele>
<time>2024-08-19T09:51:52.000Z</time>
</trkpt>
<trkpt lat="41.8544083" lon="13.7786450">
<ele>1319.39</ele>
<time>2024-08-19T09:52:02.000Z</time>
</trkpt>
<trkpt lat="41.8543767" lon="13.7783817">
<ele>1321.25</ele>
<time>2024-08-19T09:52:11.000Z</time>
</trkpt>
<trkpt lat="41.8543650" lon="13.7781383">
<ele>1320.21</ele>
<time>2024-08-19T09:52:19.000Z</time>
</trkpt>
<trkpt lat="41.8544217" lon="13.7778783">
<ele>1321.90</ele>
<time>2024-08-19T09:52:27.000Z</time>
</trkpt>
<trkpt lat="41.8545367" lon="13.7776867">
<ele>1321.39</ele>
<time>2024-08-19T09:52:34.000Z</time>
</trkpt>
<trkpt lat="41.8546400" lon="13.7774867">
<ele>1322.95</ele>
<time>2024-08-19T09:52:43.000Z</time>
</trkpt>
<trkpt lat="41.8547283" lon="13.7772667">
<ele>1327.73</ele>
<time>2024-08-19T09:52:52.000Z</time>
</trkpt>
<trkpt lat="41.8548050" lon="13.7770417">
<ele>1332.89</ele>
<time>2024-08-19T09:53:01.000Z</time>
</trkpt>
<trkpt lat="41.8549200" lon="13.7768483">
<ele>1333.05</ele>
<time>2024-08-19T09:53:08.000Z</time>
</trkpt>
<trkpt lat="41.8550267" lon="13.7766450">
<ele>1331.05</ele>
<time>2024-08-19T09:53:15.000Z</time>
</trkpt>
<trkpt lat="41.8551283" lon="13.7764233">
<ele>1327.54</ele>
<time>2024-08-19T09:53:23.000Z</time>
</trkpt>
<trkpt lat="41.8553083" lon="13.7765133">
<ele>1333.29</ele>
<time>2024-08-19T09:53:33.000Z</time>
</trkpt>
<trkpt lat="41.8552600" lon="13.7767700">
<ele>1341.98</ele>
<time>2024-08-19T09:53:41.000Z</time>
</trkpt>
<trkpt lat="41.8551350" lon="13.7769483">
<ele>1346.29</ele>
<time>2024-08-19T09:53:48.000Z</time>
</trkpt>
<trkpt lat="41.8550267" lon="13.7771450">
<ele>1345.01</ele>
<time>2024-08-19T09:53:54.000Z</time>
</trkpt>
<trkpt lat="41.8549367" lon="13.7773583">
<ele>1341.49</ele>
<time>2024-08-19T09:54:00.000Z</time>
</trkpt>
<trkpt lat="41.8548667" lon="13.7776083">
<ele>1340.15</ele>
<time>2024-08-19T09:54:07.000Z</time>
</trkpt>
<trkpt lat="41.8547700" lon="13.7778383">
<ele>1341.82</ele>
<time>2024-08-19T09:54:14.000Z</time>
</trkpt>
<trkpt lat="41.8546767" lon="13.7780750">
<ele>1340.92</ele>
<time>2024-08-19T09:54:21.000Z</time>
</trkpt>
<trkpt lat="41.8546817" lon="13.7783400">
<ele>1338.14</ele>
<time>2024-08-19T09:54:29.000Z</time>
</trkpt>
<trkpt lat="41.8547500" lon="13.7785767">
<ele>1336.97</ele>
<time>2024-08-19T09:54:36.000Z</time>
</trkpt>
<trkpt lat="41.8548700" lon="13.7787917">
<ele>1337.10</ele>
<time>2024-08-19T09:54:44.000Z</time>
</trkpt>
<trkpt lat="41.8550250" lon="13.7789667">
<ele>1342.26</ele>
<time>2024-08-19T09:54:52.000Z</time>
</trkpt>
<trkpt lat="41.8551783" lon="13.7791117">
<ele>1350.14</ele>
<time>2024-08-19T09:55:01.000Z</time>
</trkpt>
<trkpt lat="41.8553533" lon="13.7791700">
<ele>1355.05</ele>
<time>2024-08-19T09:55:10.000Z</time>
</trkpt>
<trkpt lat="41.8555500" lon="13.7791667">
<ele>1357.02</ele>
<time>2024-08-19T09:55:20.000Z</time>
</trkpt>
<trkpt lat="41.8557433" lon="13.7791250">
<ele>1354.88</ele>
<time>2024-08-19T09:55:28.000Z</time>
</trkpt>
<trkpt lat="41.8559283" lon="13.7790617">
<ele>1352.83</ele>
<time>2024-08-19T09:55:35.000Z</time>
</trkpt>
<trkpt lat="41.8561133" lon="13.7790933">
<ele>1355.58</ele>
<time>2024-08-19T09:55:43.000Z</time>
</trkpt>
<trkpt lat="41.8563050" lon="13.7791417">
<ele>1359.86</ele>
<time>2024-08-19T09:55:51.000Z</time>
</trkpt>
<trkpt lat="41.8564933" lon="13.7791883">
<ele>1359.78</ele>
<time>2024-08-19T09:55:59.000Z</time>
</trkpt>
<trkpt lat="41.8566733" lon="13.7791733">
<ele>1358.84</ele>
<time>2024-08-19T09:56:07.000Z</time>
</trkpt>
<trkpt lat="41.8568750" lon="13.7791667">
<ele>1354.95</ele>
<time>2024-08-19T09:56:15.000Z</time>
</trkpt>
<trkpt lat="41.8570950" lon="13.7792183">
<ele>1356.81</ele>
<time>2024-08-19T09:56:27.000Z</time>
</trkpt>
<trkpt lat="41.8572733" lon="13.7793233">
<ele>1367.25</ele>
<time>2024-08-19T09:56:36.000Z</time>
</trkpt>
<trkpt lat="41.8574600" lon="13.7793850">
<ele>1376.56</ele>
<time>2024-08-19T09:56:44.000Z</time>
</trkpt>
<trkpt lat="41.8576633" lon="13.7794250">
<ele>1374.40</ele>
<time>2024-08-19T09:56:52.000Z</time>
</trkpt>
<trkpt lat="41.8578550" lon="13.7794117">
<ele>1370.08</ele>
<time>2024-08-19T09:56:59.000Z</time>
</trkpt>
<trkpt lat="41.8580383" lon="13.7794167">
<ele>1362.65</ele>
<time>2024-08-19T09:57:07.000Z</time>
</trkpt>
<trkpt lat="41.8582333" lon="13.7794017">
<ele>1360.45</ele>
<time>2024-08-19T09:57:15.000Z</time>
</trkpt>
<trkpt lat="41.8584267" lon="13.7793617">
<ele>1358.92</ele>
<time>2024-08-19T09:57:23.000Z</time>
</trkpt>
<trkpt lat="41.8586117" lon="13.7792933">
<ele>1358.34</ele>
<time>2024-08-19T09:57:31.000Z</time>
</trkpt>
<trkpt lat="41.8587900" lon="13.7792433">
<ele>1358.11</ele>
<time>2024-08-19T09:57:39.000Z</time>
</trkpt>
<trkpt lat="41.8589717" lon="13.7791633">
<ele>1357.81</ele>
<time>2024-08-19T09:57:49.000Z</time>
</trkpt>
<trkpt lat="41.8591467" lon="13.7790850">
<ele>1357.81</ele>
<time>2024-08-19T09:57:58.000Z</time>
</trkpt>
<trkpt lat="41.8593500" lon="13.7790400">
<ele>1361.63</ele>
<time>2024-08-19T09:58:08.000Z</time>
</trkpt>
<trkpt lat="41.8595383" lon="13.7790250">
<ele>1366.08</ele>
<time>2024-08-19T09:58:15.000Z</time>
</trkpt>
<trkpt lat="41.8597333" lon="13.7790150">
<ele>1370.64</ele>
<time>2024-08-19T09:58:24.000Z</time>
</trkpt>
<trkpt lat="41.8599133" lon="13.7789917">
<ele>1369.80</ele>
<time>2024-08-19T09:58:32.000Z</time>
</trkpt>
<trkpt lat="41.8601067" lon="13.7789800">
<ele>1369.13</ele>
<time>2024-08-19T09:58:40.000Z</time>
</trkpt>
<trkpt lat="41.8602800" lon="13.7788900">
<ele>1368.67</ele>
<time>2024-08-19T09:58:47.000Z</time>
</trkpt>
<trkpt lat="41.8604483" lon="13.7787567">
<ele>1364.61</ele>
<time>2024-08-19T09:58:53.000Z</time>
</trkpt>
<trkpt lat="41.8606100" lon="13.7785717">
<ele>1364.12</ele>
<time>2024-08-19T09:58:59.000Z</time>
</trkpt>
<trkpt lat="41.8607400" lon="13.7783917">
<ele>1366.71</ele>
<time>2024-08-19T09:59:04.000Z</time>
</trkpt>
<trkpt lat="41.8608850" lon="13.7781917">
<ele>1366.59</ele>
<time>2024-08-19T09:59:09.000Z</time>
</trkpt>
<trkpt lat="41.8610200" lon="13.7779983">
<ele>1361.93</ele>
<time>2024-08-19T09:59:14.000Z</time>
</trkpt>
<trkpt lat="41.8611550" lon="13.7778167">
<ele>1360.71</ele>
<time>2024-08-19T09:59:19.000Z</time>
</trkpt>
<trkpt lat="41.8613100" lon="13.7776717">
<ele>1359.33</ele>
<time>2024-08-19T09:59:24.000Z</time>
</trkpt>
<trkpt lat="41.8615100" lon="13.7775917">
<ele>1357.64</ele>
<time>2024-08-19T09:59:30.000Z</time>
</trkpt>
<trkpt lat="41.8617050" lon="13.7776450">
<ele>1360.85</ele>
<time>2024-08-19T09:59:36.000Z</time>
</trkpt>
<trkpt lat="41.8618850" lon="13.7778017">
<ele>1364.98</ele>
<time>2024-08-19T09:59:41.000Z</time>
</trkpt>
<trkpt lat="41.8620117" lon="13.7779883">
<ele>1368.03</ele>
<time>2024-08-19T09:59:45.000Z</time>
</trkpt>
<trkpt lat="41.8621567" lon="13.7781717">
<ele>1371.63</ele>
<time>2024-08-19T09:59:50.000Z</time>
</trkpt>
<trkpt lat="41.8623067" lon="13.7783167">
<ele>1375.39</ele>
<time>2024-08-19T09:59:56.000Z</time>
</trkpt>
<trkpt lat="41.8625117" lon="13.7783433">
<ele>1380.79</ele>
<time>2024-08-19T10:00:03.000Z</time>
</trkpt>
<trkpt lat="41.8627017" lon="13.7782967">
<ele>1381.89</ele>
<time>2024-08-19T10:00:08.000Z</time>
</trkpt>
<trkpt lat="41.8628750" lon="13.7781550">
<ele>1377.13</ele>
<time>2024-08-19T10:00:13.000Z</time>
</trkpt>
<trkpt lat="41.8630167" lon="13.7779750">
<ele>1372.31</ele>
<time>2024-08-19T10:00:18.000Z</time>
</trkpt>
<trkpt lat="41.8631383" lon="13.7777600">
<ele>1368.00</ele>
<time>2024-08-19T10:00:23.000Z</time>
</trkpt>
<trkpt lat="41.8633317" lon="13.7776717">
<ele>1363.38</ele>
<time>2024-08-19T10:00:29.000Z</time>
</trkpt>
<trkpt lat="41.8635267" lon="13.7776650">
<ele>1366.33</ele>
<time>2024-08-19T10:00:35.000Z</time>
</trkpt>
<trkpt lat="41.8637283" lon="13.7777117">
<ele>1368.53</ele>
<time>2024-08-19T10:00:40.000Z</time>
</trkpt>
<trkpt lat="41.8639500" lon="13.7777450">
<ele>1368.68</ele>
<time>2024-08-19T10:00:45.000Z</time>
</trkpt>
<trkpt lat="41.8641300" lon="13.7777683">
<ele>1368.62</ele>
<time>2024-08-19T10:00:49.000Z</time>
</trkpt>
<trkpt lat="41.8643483" lon="13.7777983">
<ele>1370.05</ele>
<time>2024-08-19T10:00:54.000Z</time>
</trkpt>
<trkpt lat="41.8645350" lon="13.7778533">
<ele>1369.19</ele>
<time>2024-08-19T10:00:58.000Z</time>
</trkpt>
<trkpt lat="41.8647483" lon="13.7778567">
<ele>1366.08</ele>
<time>2024-08-19T10:01:04.000Z</time>
</trkpt>
<trkpt lat="41.8649267" lon="13.7778017">
<ele>1365.42</ele>
<time>2024-08-19T10:01:08.000Z</time>
</trkpt>
<trkpt lat="41.8651333" lon="13.7777500">
<ele>1365.36</ele>
<time>2024-08-19T10:01:12.000Z</time>
</trkpt>
<trkpt lat="41.8653267" lon="13.7777100">
<ele>1363.91</ele>
<time>2024-08-19T10:01:16.000Z</time>
</trkpt>
<trkpt lat="41.8655450" lon="13.7776333">
<ele>1363.06</ele>
<time>2024-08-19T10:01:21.000Z</time>
</trkpt>
<trkpt lat="41.8657333" lon="13.7775783">
<ele>1363.38</ele>
<time>2024-08-19T10:01:25.000Z</time>
</trkpt>
<trkpt lat="41.8659533" lon="13.7775517">
<ele>1362.35</ele>
<time>2024-08-19T10:01:29.000Z</time>
</trkpt>
<trkpt lat="41.8661633" lon="13.7775033">
<ele>1361.95</ele>
<time>2024-08-19T10:01:33.000Z</time>
</trkpt>
<trkpt lat="41.8663650" lon="13.7774417">
<ele>1362.25</ele>
<time>2024-08-19T10:01:37.000Z</time>
</trkpt>
<trkpt lat="41.8665467" lon="13.7773883">
<ele>1362.12</ele>
<time>2024-08-19T10:01:41.000Z</time>
</trkpt>
<trkpt lat="41.8667383" lon="13.7773350">
<ele>1361.62</ele>
<time>2024-08-19T10:01:45.000Z</time>
</trkpt>
<trkpt lat="41.8669433" lon="13.7772417">
<ele>1362.62</ele>
<time>2024-08-19T10:01:50.000Z</time>
</trkpt>
<trkpt lat="41.8670867" lon="13.7770517">
<ele>1362.09</ele>
<time>2024-08-19T10:01:55.000Z</time>
</trkpt>
<trkpt lat="41.8671850" lon="13.7768117">
<ele>1362.86</ele>
<time>2024-08-19T10:02:01.000Z</time>
</trkpt>
<trkpt lat="41.8672600" lon="13.7765817">
<ele>1363.06</ele>
<time>2024-08-19T10:02:09.000Z</time>
</trkpt>
<trkpt lat="41.8673900" lon="13.7764083">
<ele>1362.31</ele>
<time>2024-08-19T10:02:17.000Z</time>
</trkpt>
<trkpt lat="41.8675883" lon="13.7762800">
<ele>1361.07</ele>
<time>2024-08-19T10:02:58.000Z</time>
</trkpt>
<trkpt lat="41.8674200" lon="13.7764133">
<ele>1363.08</ele>
<time>2024-08-19T10:06:52.000Z</time>
</trkpt>
<trkpt lat="41.8672767" lon="13.7765667">
<ele>1361.60</ele>
<time>2024-08-19T10:06:59.000Z</time>
</trkpt>
<trkpt lat="41.8671917" lon="13.7767833">
<ele>1362.61</ele>
<time>2024-08-19T10:07:09.000Z</time>
</trkpt>
<trkpt lat="41.8671233" lon="13.7770117">
<ele>1361.25</ele>
<time>2024-08-19T10:07:21.000Z</time>
</trkpt>
<trkpt lat="41.8670400" lon="13.7772433">
<ele>1360.47</ele>
<time>2024-08-19T10:07:29.000Z</time>
</trkpt>
<trkpt lat="41.8670983" lon="13.7774933">
<ele>1363.95</ele>
<time>2024-08-19T10:07:42.000Z</time>
</trkpt>
<trkpt lat="41.8671533" lon="13.7777417">
<ele>1367.06</ele>
<time>2024-08-19T10:07:53.000Z</time>
</trkpt>
<trkpt lat="41.8672167" lon="13.7779900">
<ele>1364.08</ele>
<time>2024-08-19T10:08:01.000Z</time>
</trkpt>
<trkpt lat="41.8672933" lon="13.7782150">
<ele>1364.03</ele>
<time>2024-08-19T10:08:10.000Z</time>
</trkpt>
<trkpt lat="41.8673700" lon="13.7784433">
<ele>1366.01</ele>
<time>2024-08-19T10:08:19.000Z</time>
</trkpt>
<trkpt lat="41.8674300" lon="13.7786717">
<ele>1367.19</ele>
<time>2024-08-19T10:08:27.000Z</time>
</trkpt>
<trkpt lat="41.8674900" lon="13.7789017">
<ele>1366.99</ele>
<time>2024-08-19T10:08:36.000Z</time>
</trkpt>
<trkpt lat="41.8675633" lon="13.7791417">
<ele>1368.39</ele>
<time>2024-08-19T10:08:46.000Z</time>
</trkpt>
<trkpt lat="41.8676217" lon="13.7793900">
<ele>1367.35</ele>
<time>2024-08-19T10:08:56.000Z</time>
</trkpt>
<trkpt lat="41.8676533" lon="13.7796450">
<ele>1367.87</ele>
<time>2024-08-19T10:09:06.000Z</time>
</trkpt>
<trkpt lat="41.8676583" lon="13.7798950">
<ele>1368.09</ele>
<time>2024-08-19T10:09:15.000Z</time>
</trkpt>
<trkpt lat="41.8676717" lon="13.7801500">
<ele>1368.27</ele>
<time>2024-08-19T10:09:25.000Z</time>
</trkpt>
<trkpt lat="41.8677183" lon="13.7803850">
<ele>1377.35</ele>
<time>2024-08-19T10:10:28.000Z</time>
</trkpt>
<trkpt lat="41.8677467" lon="13.7806367">
<ele>1374.04</ele>
<time>2024-08-19T10:10:39.000Z</time>
</trkpt>
<trkpt lat="41.8677300" lon="13.7808967">
<ele>1372.65</ele>
<time>2024-08-19T10:10:48.000Z</time>
</trkpt>
<trkpt lat="41.8676850" lon="13.7811350">
<ele>1372.20</ele>
<time>2024-08-19T10:10:57.000Z</time>
</trkpt>
<trkpt lat="41.8676950" lon="13.7813933">
<ele>1370.19</ele>
<time>2024-08-19T10:11:06.000Z</time>
</trkpt>
<trkpt lat="41.8676817" lon="13.7816367">
<ele>1370.48</ele>
<time>2024-08-19T10:11:16.000Z</time>
</trkpt>
<trkpt lat="41.8676867" lon="13.7818850">
<ele>1374.15</ele>
<time>2024-08-19T10:11:26.000Z</time>
</trkpt>
<trkpt lat="41.8676533" lon="13.7821317">
<ele>1381.10</ele>
<time>2024-08-19T10:11:41.000Z</time>
</trkpt>
<trkpt lat="41.8678133" lon="13.7824217">
<ele>1387.38</ele>
<time>2024-08-19T10:12:11.000Z</time>
</trkpt>
<trkpt lat="41.8679133" lon="13.7826283">
<ele>1389.51</ele>
<time>2024-08-19T10:12:29.000Z</time>
</trkpt>
<trkpt lat="41.8680350" lon="13.7828683">
<ele>1388.55</ele>
<time>2024-08-19T10:13:18.000Z</time>
</trkpt>
<trkpt lat="41.8681250" lon="13.7830967">
<ele>1385.71</ele>
<time>2024-08-19T10:13:55.000Z</time>
</trkpt>
<trkpt lat="41.8681967" lon="13.7833933">
<ele>1387.43</ele>
<time>2024-08-19T10:14:20.000Z</time>
</trkpt>
<trkpt lat="41.8682133" lon="13.7836417">
<ele>1388.94</ele>
<time>2024-08-19T10:14:30.000Z</time>
</trkpt>
<trkpt lat="41.8682100" lon="13.7838967">
<ele>1389.82</ele>
<time>2024-08-19T10:14:40.000Z</time>
</trkpt>
<trkpt lat="41.8682383" lon="13.7841367">
<ele>1390.72</ele>
<time>2024-08-19T10:14:50.000Z</time>
</trkpt>
<trkpt lat="41.8682867" lon="13.7843833">
<ele>1391.73</ele>
<time>2024-08-19T10:15:01.000Z</time>
</trkpt>
<trkpt lat="41.8682733" lon="13.7846417">
<ele>1389.25</ele>
<time>2024-08-19T10:15:12.000Z</time>
</trkpt>
<trkpt lat="41.8682483" lon="13.7848850">
<ele>1389.59</ele>
<time>2024-08-19T10:15:21.000Z</time>
</trkpt>
<trkpt lat="41.8681867" lon="13.7851217">
<ele>1393.18</ele>
<time>2024-08-19T10:15:33.000Z</time>
</trkpt>
<trkpt lat="41.8681367" lon="13.7853567">
<ele>1395.25</ele>
<time>2024-08-19T10:15:44.000Z</time>
</trkpt>
<trkpt lat="41.8680383" lon="13.7855833">
<ele>1397.22</ele>
<time>2024-08-19T10:15:55.000Z</time>
</trkpt>
<trkpt lat="41.8679300" lon="13.7857833">
<ele>1400.94</ele>
<time>2024-08-19T10:16:06.000Z</time>
</trkpt>
<trkpt lat="41.8679050" lon="13.7860250">
<ele>1399.07</ele>
<time>2024-08-19T10:16:17.000Z</time>
</trkpt>
<trkpt lat="41.8678267" lon="13.7862500">
<ele>1399.70</ele>
<time>2024-08-19T10:16:29.000Z</time>
</trkpt>
<trkpt lat="41.8677700" lon="13.7864883">
<ele>1401.63</ele>
<time>2024-08-19T10:16:42.000Z</time>
</trkpt>
<trkpt lat="41.8677167" lon="13.7867350">
<ele>1407.11</ele>
<time>2024-08-19T10:16:55.000Z</time>
</trkpt>
<trkpt lat="41.8676617" lon="13.7869717">
<ele>1409.48</ele>
<time>2024-08-19T10:17:06.000Z</time>
</trkpt>
<trkpt lat="41.8677000" lon="13.7872150">
<ele>1404.64</ele>
<time>2024-08-19T10:17:22.000Z</time>
</trkpt>
<trkpt lat="41.8676783" lon="13.7875250">
<ele>1409.94</ele>
<time>2024-08-19T10:17:41.000Z</time>
</trkpt>
<trkpt lat="41.8676667" lon="13.7877883">
<ele>1410.86</ele>
<time>2024-08-19T10:17:55.000Z</time>
</trkpt>
<trkpt lat="41.8676533" lon="13.7880350">
<ele>1410.72</ele>
<time>2024-08-19T10:18:10.000Z</time>
</trkpt>
<trkpt lat="41.8676517" lon="13.7882933">
<ele>1414.88</ele>
<time>2024-08-19T10:18:24.000Z</time>
</trkpt>
<trkpt lat="41.8676333" lon="13.7885617">
<ele>1416.12</ele>
<time>2024-08-19T10:18:46.000Z</time>
</trkpt>
<trkpt lat="41.8676683" lon="13.7888167">
<ele>1420.31</ele>
<time>2024-08-19T10:19:33.000Z</time>
</trkpt>
<trkpt lat="41.8676417" lon="13.7890650">
<ele>1421.76</ele>
<time>2024-08-19T10:19:44.000Z</time>
</trkpt>
<trkpt lat="41.8676967" lon="13.7893000">
<ele>1419.76</ele>
<time>2024-08-19T10:19:59.000Z</time>
</trkpt>
<trkpt lat="41.8678150" lon="13.7895033">
<ele>1427.21</ele>
<time>2024-08-19T10:20:12.000Z</time>
</trkpt>
<trkpt lat="41.8679600" lon="13.7896483">
<ele>1426.77</ele>
<time>2024-08-19T10:20:26.000Z</time>
</trkpt>
<trkpt lat="41.8681150" lon="13.7898083">
<ele>1428.37</ele>
<time>2024-08-19T10:20:35.000Z</time>
</trkpt>
<trkpt lat="41.8682533" lon="13.7899717">
<ele>1431.55</ele>
<time>2024-08-19T10:20:44.000Z</time>
</trkpt>
<trkpt lat="41.8683183" lon="13.7901983">
<ele>1433.13</ele>
<time>2024-08-19T10:20:54.000Z</time>
</trkpt>
<trkpt lat="41.8682350" lon="13.7904517">
<ele>1430.57</ele>
<time>2024-08-19T10:21:06.000Z</time>
</trkpt>
<trkpt lat="41.8681350" lon="13.7906683">
<ele>1433.45</ele>
<time>2024-08-19T10:21:15.000Z</time>
</trkpt>
<trkpt lat="41.8679950" lon="13.7908300">
<ele>1431.72</ele>
<time>2024-08-19T10:21:24.000Z</time>
</trkpt>
<trkpt lat="41.8678667" lon="13.7910267">
<ele>1427.83</ele>
<time>2024-08-19T10:21:35.000Z</time>
</trkpt>
<trkpt lat="41.8677167" lon="13.7912050">
<ele>1424.83</ele>
<time>2024-08-19T10:21:45.000Z</time>
</trkpt>
<trkpt lat="41.8675950" lon="13.7913950">
<ele>1428.06</ele>
<time>2024-08-19T10:21:56.000Z</time>
</trkpt>
<trkpt lat="41.8674517" lon="13.7915833">
<ele>1431.86</ele>
<time>2024-08-19T10:22:06.000Z</time>
</trkpt>
<trkpt lat="41.8673217" lon="13.7917550">
<ele>1431.46</ele>
<time>2024-08-19T10:22:14.000Z</time>
</trkpt>
<trkpt lat="41.8671500" lon="13.7918467">
<ele>1429.95</ele>
<time>2024-08-19T10:22:24.000Z</time>
</trkpt>
<trkpt lat="41.8669917" lon="13.7920017">
<ele>1430.66</ele>
<time>2024-08-19T10:22:35.000Z</time>
</trkpt>
<trkpt lat="41.8668433" lon="13.7921467">
<ele>1432.58</ele>
<time>2024-08-19T10:22:45.000Z</time>
</trkpt>
<trkpt lat="41.8667033" lon="13.7923333">
<ele>1435.99</ele>
<time>2024-08-19T10:22:54.000Z</time>
</trkpt>
<trkpt lat="41.8667183" lon="13.7926000">
<ele>1434.83</ele>
<time>2024-08-19T10:23:03.000Z</time>
</trkpt>
<trkpt lat="41.8667483" lon="13.7928517">
<ele>1435.91</ele>
<time>2024-08-19T10:23:15.000Z</time>
</trkpt>
<trkpt lat="41.8668367" lon="13.7930700">
<ele>1439.59</ele>
<time>2024-08-19T10:23:27.000Z</time>
</trkpt>
<trkpt lat="41.8668517" lon="13.7933350">
<ele>1444.48</ele>
<time>2024-08-19T10:23:37.000Z</time>
</trkpt>
<trkpt lat="41.8667517" lon="13.7935367">
<ele>1446.86</ele>
<time>2024-08-19T10:23:48.000Z</time>
</trkpt>
<trkpt lat="41.8665567" lon="13.7936867">
<ele>1446.33</ele>
<time>2024-08-19T10:23:58.000Z</time>
</trkpt>
<trkpt lat="41.8664317" lon="13.7938883">
<ele>1446.93</ele>
<time>2024-08-19T10:24:08.000Z</time>
</trkpt>
<trkpt lat="41.8665150" lon="13.7941117">
<ele>1449.35</ele>
<time>2024-08-19T10:24:22.000Z</time>
</trkpt>
<trkpt lat="41.8665250" lon="13.7943867">
<ele>1452.12</ele>
<time>2024-08-19T10:24:35.000Z</time>
</trkpt>
<trkpt lat="41.8665317" lon="13.7946283">
<ele>1452.99</ele>
<time>2024-08-19T10:24:45.000Z</time>
</trkpt>
<trkpt lat="41.8666433" lon="13.7948550">
<ele>1455.14</ele>
<time>2024-08-19T10:24:55.000Z</time>
</trkpt>
<trkpt lat="41.8667383" lon="13.7950850">
<ele>1457.71</ele>
<time>2024-08-19T10:25:05.000Z</time>
</trkpt>
<trkpt lat="41.8667383" lon="13.7953383">
<ele>1455.65</ele>
<time>2024-08-19T10:25:14.000Z</time>
</trkpt>
<trkpt lat="41.8668167" lon="13.7955967">
<ele>1457.65</ele>
<time>2024-08-19T10:25:46.000Z</time>
</trkpt>
<trkpt lat="41.8667317" lon="13.7953467">
<ele>1467.20</ele>
<time>2024-08-19T10:30:12.000Z</time>
</trkpt>
<trkpt lat="41.8666667" lon="13.7950917">
<ele>1474.30</ele>
<time>2024-08-19T10:30:20.000Z</time>
</trkpt>
<trkpt lat="41.8665600" lon="13.7948800">
<ele>1478.45</ele>
<time>2024-08-19T10:30:25.000Z</time>
</trkpt>
<trkpt lat="41.8665217" lon="13.7945667">
<ele>1476.70</ele>
<time>2024-08-19T10:30:31.000Z</time>
</trkpt>
<trkpt lat="41.8665417" lon="13.7943100">
<ele>1471.50</ele>
<time>2024-08-19T10:30:36.000Z</time>
</trkpt>
<trkpt lat="41.8664867" lon="13.7940650">
<ele>1467.66</ele>
<time>2024-08-19T10:30:41.000Z</time>
</trkpt>
<trkpt lat="41.8665383" lon="13.7938333">
<ele>1460.24</ele>
<time>2024-08-19T10:30:47.000Z</time>
</trkpt>
<trkpt lat="41.8666950" lon="13.7936983">
<ele>1455.15</ele>
<time>2024-08-19T10:30:53.000Z</time>
</trkpt>
<trkpt lat="41.8668400" lon="13.7935550">
<ele>1452.33</ele>
<time>2024-08-19T10:30:58.000Z</time>
</trkpt>
<trkpt lat="41.8668550" lon="13.7932867">
<ele>1446.75</ele>
<time>2024-08-19T10:31:07.000Z</time>
</trkpt>
<trkpt lat="41.8667617" lon="13.7930500">
<ele>1443.12</ele>
<time>2024-08-19T10:31:15.000Z</time>
</trkpt>
<trkpt lat="41.8666883" lon="13.7928133">
<ele>1444.86</ele>
<time>2024-08-19T10:32:08.000Z</time>
</trkpt>
<trkpt lat="41.8667083" lon="13.7925200">
<ele>1445.95</ele>
<time>2024-08-19T10:32:15.000Z</time>
</trkpt>
<trkpt lat="41.8667867" lon="13.7922950">
<ele>1440.02</ele>
<time>2024-08-19T10:32:20.000Z</time>
</trkpt>
<trkpt lat="41.8669383" lon="13.7921200">
<ele>1438.47</ele>
<time>2024-08-19T10:32:26.000Z</time>
</trkpt>
<trkpt lat="41.8670817" lon="13.7919517">
<ele>1438.55</ele>
<time>2024-08-19T10:32:32.000Z</time>
</trkpt>
<trkpt lat="41.8672333" lon="13.7917750">
<ele>1442.28</ele>
<time>2024-08-19T10:32:40.000Z</time>
</trkpt>
<trkpt lat="41.8673983" lon="13.7916250">
<ele>1444.53</ele>
<time>2024-08-19T10:32:46.000Z</time>
</trkpt>
<trkpt lat="41.8675667" lon="13.7914683">
<ele>1445.61</ele>
<time>2024-08-19T10:32:53.000Z</time>
</trkpt>
<trkpt lat="41.8677033" lon="13.7912633">
<ele>1441.63</ele>
<time>2024-08-19T10:32:59.000Z</time>
</trkpt>
<trkpt lat="41.8678200" lon="13.7910600">
<ele>1435.84</ele>
<time>2024-08-19T10:33:06.000Z</time>
</trkpt>
<trkpt lat="41.8679667" lon="13.7908817">
<ele>1432.55</ele>
<time>2024-08-19T10:33:31.000Z</time>
</trkpt>
<trkpt lat="41.8680683" lon="13.7906733">
<ele>1432.94</ele>
<time>2024-08-19T10:33:38.000Z</time>
</trkpt>
<trkpt lat="41.8682167" lon="13.7905050">
<ele>1434.85</ele>
<time>2024-08-19T10:33:45.000Z</time>
</trkpt>
<trkpt lat="41.8683033" lon="13.7902600">
<ele>1438.28</ele>
<time>2024-08-19T10:33:52.000Z</time>
</trkpt>
<trkpt lat="41.8682417" lon="13.7899967">
<ele>1452.40</ele>
<time>2024-08-19T10:34:01.000Z</time>
</trkpt>
<trkpt lat="41.8680717" lon="13.7899133">
<ele>1451.07</ele>
<time>2024-08-19T10:34:06.000Z</time>
</trkpt>
<trkpt lat="41.8679017" lon="13.7898033">
<ele>1448.17</ele>
<time>2024-08-19T10:34:11.000Z</time>
</trkpt>
<trkpt lat="41.8677600" lon="13.7896317">
<ele>1441.98</ele>
<time>2024-08-19T10:34:18.000Z</time>
</trkpt>
<trkpt lat="41.8676383" lon="13.7894333">
<ele>1438.87</ele>
<time>2024-08-19T10:34:25.000Z</time>
</trkpt>
<trkpt lat="41.8676467" lon="13.7891583">
<ele>1438.97</ele>
<time>2024-08-19T10:34:32.000Z</time>
</trkpt>
<trkpt lat="41.8676417" lon="13.7889050">
<ele>1437.82</ele>
<time>2024-08-19T10:34:40.000Z</time>
</trkpt>
<trkpt lat="41.8676200" lon="13.7885450">
<ele>1433.91</ele>
<time>2024-08-19T10:34:58.000Z</time>
</trkpt>
<trkpt lat="41.8676283" lon="13.7882900">
<ele>1433.40</ele>
<time>2024-08-19T10:35:07.000Z</time>
</trkpt>
<trkpt lat="41.8676683" lon="13.7880283">
<ele>1433.30</ele>
<time>2024-08-19T10:35:16.000Z</time>
</trkpt>
<trkpt lat="41.8676683" lon="13.7877700">
<ele>1430.06</ele>
<time>2024-08-19T10:35:25.000Z</time>
</trkpt>
<trkpt lat="41.8677033" lon="13.7875183">
<ele>1428.43</ele>
<time>2024-08-19T10:35:33.000Z</time>
</trkpt>
<trkpt lat="41.8676733" lon="13.7872733">
<ele>1417.19</ele>
<time>2024-08-19T10:35:41.000Z</time>
</trkpt>
<trkpt lat="41.8676683" lon="13.7870067">
<ele>1410.50</ele>
<time>2024-08-19T10:35:49.000Z</time>
</trkpt>
<trkpt lat="41.8676917" lon="13.7867650">
<ele>1408.74</ele>
<time>2024-08-19T10:35:56.000Z</time>
</trkpt>
<trkpt lat="41.8677600" lon="13.7865083">
<ele>1411.12</ele>
<time>2024-08-19T10:36:02.000Z</time>
</trkpt>
<trkpt lat="41.8678250" lon="13.7862517">
<ele>1413.22</ele>
<time>2024-08-19T10:36:09.000Z</time>
</trkpt>
<trkpt lat="41.8678867" lon="13.7860083">
<ele>1411.12</ele>
<time>2024-08-19T10:36:14.000Z</time>
</trkpt>
<trkpt lat="41.8679400" lon="13.7857450">
<ele>1403.46</ele>
<time>2024-08-19T10:36:20.000Z</time>
</trkpt>
<trkpt lat="41.8680733" lon="13.7855367">
<ele>1398.29</ele>
<time>2024-08-19T10:36:26.000Z</time>
</trkpt>
<trkpt lat="41.8681667" lon="13.7853167">
<ele>1396.35</ele>
<time>2024-08-19T10:36:32.000Z</time>
</trkpt>
<trkpt lat="41.8682217" lon="13.7850867">
<ele>1395.64</ele>
<time>2024-08-19T10:36:37.000Z</time>
</trkpt>
<trkpt lat="41.8682617" lon="13.7848317">
<ele>1396.32</ele>
<time>2024-08-19T10:36:59.000Z</time>
</trkpt>
<trkpt lat="41.8682667" lon="13.7845583">
<ele>1393.99</ele>
<time>2024-08-19T10:37:06.000Z</time>
</trkpt>
<trkpt lat="41.8682583" lon="13.7843033">
<ele>1392.87</ele>
<time>2024-08-19T10:37:11.000Z</time>
</trkpt>
<trkpt lat="41.8682033" lon="13.7840367">
<ele>1392.71</ele>
<time>2024-08-19T10:37:18.000Z</time>
</trkpt>
<trkpt lat="41.8681967" lon="13.7837800">
<ele>1391.96</ele>
<time>2024-08-19T10:37:23.000Z</time>
</trkpt>
<trkpt lat="41.8682050" lon="13.7835350">
<ele>1390.29</ele>
<time>2024-08-19T10:37:28.000Z</time>
</trkpt>
<trkpt lat="41.8681717" lon="13.7832950">
<ele>1393.03</ele>
<time>2024-08-19T10:37:36.000Z</time>
</trkpt>
<trkpt lat="41.8680783" lon="13.7830683">
<ele>1388.81</ele>
<time>2024-08-19T10:37:47.000Z</time>
</trkpt>
<trkpt lat="41.8679700" lon="13.7828050">
<ele>1391.57</ele>
<time>2024-08-19T10:38:15.000Z</time>
</trkpt>
<trkpt lat="41.8678433" lon="13.7825983">
<ele>1391.97</ele>
<time>2024-08-19T10:38:34.000Z</time>
</trkpt>
<trkpt lat="41.8677250" lon="13.7824017">
<ele>1387.76</ele>
<time>2024-08-19T10:38:45.000Z</time>
</trkpt>
<trkpt lat="41.8676283" lon="13.7821933">
<ele>1386.11</ele>
<time>2024-08-19T10:38:56.000Z</time>
</trkpt>
<trkpt lat="41.8676717" lon="13.7819217">
<ele>1387.53</ele>
<time>2024-08-19T10:39:03.000Z</time>
</trkpt>
<trkpt lat="41.8676883" lon="13.7816700">
<ele>1382.27</ele>
<time>2024-08-19T10:39:09.000Z</time>
</trkpt>
<trkpt lat="41.8677033" lon="13.7814217">
<ele>1373.80</ele>
<time>2024-08-19T10:39:14.000Z</time>
</trkpt>
<trkpt lat="41.8677717" lon="13.7811550">
<ele>1372.32</ele>
<time>2024-08-19T10:39:22.000Z</time>
</trkpt>
<trkpt lat="41.8677983" lon="13.7809150">
<ele>1371.25</ele>
<time>2024-08-19T10:39:27.000Z</time>
</trkpt>
<trkpt lat="41.8678217" lon="13.7806417">
<ele>1371.29</ele>
<time>2024-08-19T10:39:32.000Z</time>
</trkpt>
<trkpt lat="41.8678450" lon="13.7803650">
<ele>1371.65</ele>
<time>2024-08-19T10:39:37.000Z</time>
</trkpt>
<trkpt lat="41.8678533" lon="13.7801050">
<ele>1371.54</ele>
<time>2024-08-19T10:39:42.000Z</time>
</trkpt>
<trkpt lat="41.8678250" lon="13.7798300">
<ele>1369.50</ele>
<time>2024-08-19T10:39:48.000Z</time>
</trkpt>
<trkpt lat="41.8677800" lon="13.7795950">
<ele>1368.10</ele>
<time>2024-08-19T10:39:53.000Z</time>
</trkpt>
<trkpt lat="41.8677067" lon="13.7793467">
<ele>1366.66</ele>
<time>2024-08-19T10:39:59.000Z</time>
</trkpt>
<trkpt lat="41.8676033" lon="13.7791167">
<ele>1367.01</ele>
<time>2024-08-19T10:40:04.000Z</time>
</trkpt>
<trkpt lat="41.8675250" lon="13.7788600">
<ele>1366.06</ele>
<time>2024-08-19T10:40:09.000Z</time>
</trkpt>
<trkpt lat="41.8674567" lon="13.7786117">
<ele>1365.87</ele>
<time>2024-08-19T10:40:14.000Z</time>
</trkpt>
<trkpt lat="41.8673600" lon="13.7783783">
<ele>1363.44</ele>
<time>2024-08-19T10:40:21.000Z</time>
</trkpt>
<trkpt lat="41.8672767" lon="13.7781600">
<ele>1362.21</ele>
<time>2024-08-19T10:40:28.000Z</time>
</trkpt>
<trkpt lat="41.8671917" lon="13.7779367">
<ele>1361.15</ele>
<time>2024-08-19T10:40:35.000Z</time>
</trkpt>
<trkpt lat="41.8671250" lon="13.7776833">
<ele>1361.69</ele>
<time>2024-08-19T10:40:42.000Z</time>
</trkpt>
<trkpt lat="41.8670633" lon="13.7774483">
<ele>1359.99</ele>
<time>2024-08-19T10:40:50.000Z</time>
</trkpt>
<trkpt lat="41.8669233" lon="13.7772617">
<ele>1361.03</ele>
<time>2024-08-19T10:41:21.000Z</time>
</trkpt>
<trkpt lat="41.8667383" lon="13.7773050">
<ele>1361.09</ele>
<time>2024-08-19T10:41:27.000Z</time>
</trkpt>
<trkpt lat="41.8665600" lon="13.7773467">
<ele>1360.34</ele>
<time>2024-08-19T10:41:32.000Z</time>
</trkpt>
<trkpt lat="41.8663667" lon="13.7773983">
<ele>1361.02</ele>
<time>2024-08-19T10:41:37.000Z</time>
</trkpt>
<trkpt lat="41.8661650" lon="13.7774617">
<ele>1362.99</ele>
<time>2024-08-19T10:41:42.000Z</time>
</trkpt>
<trkpt lat="41.8659583" lon="13.7775117">
<ele>1365.65</ele>
<time>2024-08-19T10:41:48.000Z</time>
</trkpt>
<trkpt lat="41.8657717" lon="13.7775767">
<ele>1379.02</ele>
<time>2024-08-19T10:41:55.000Z</time>
</trkpt>
<trkpt lat="41.8655917" lon="13.7776350">
<ele>1371.74</ele>
<time>2024-08-19T10:42:03.000Z</time>
</trkpt>
<trkpt lat="41.8654133" lon="13.7776717">
<ele>1368.75</ele>
<time>2024-08-19T10:42:39.000Z</time>
</trkpt>
<trkpt lat="41.8652017" lon="13.7777300">
<ele>1371.24</ele>
<time>2024-08-19T10:42:46.000Z</time>
</trkpt>
<trkpt lat="41.8650033" lon="13.7777867">
<ele>1374.14</ele>
<time>2024-08-19T10:42:51.000Z</time>
</trkpt>
<trkpt lat="41.8647917" lon="13.7778317">
<ele>1375.49</ele>
<time>2024-08-19T10:42:57.000Z</time>
</trkpt>
<trkpt lat="41.8645767" lon="13.7778617">
<ele>1374.85</ele>
<time>2024-08-19T10:43:02.000Z</time>
</trkpt>
<trkpt lat="41.8643717" lon="13.7778500">
<ele>1370.39</ele>
<time>2024-08-19T10:43:06.000Z</time>
</trkpt>
<trkpt lat="41.8641817" lon="13.7777983">
<ele>1368.85</ele>
<time>2024-08-19T10:43:10.000Z</time>
</trkpt>
<trkpt lat="41.8639817" lon="13.7777683">
<ele>1368.53</ele>
<time>2024-08-19T10:43:14.000Z</time>
</trkpt>
<trkpt lat="41.8637783" lon="13.7777083">
<ele>1370.60</ele>
<time>2024-08-19T10:43:18.000Z</time>
</trkpt>
<trkpt lat="41.8635717" lon="13.7776883">
<ele>1373.84</ele>
<time>2024-08-19T10:43:22.000Z</time>
</trkpt>
<trkpt lat="41.8633567" lon="13.7777017">
<ele>1373.57</ele>
<time>2024-08-19T10:43:26.000Z</time>
</trkpt>
<trkpt lat="41.8631583" lon="13.7778400">
<ele>1371.97</ele>
<time>2024-08-19T10:43:30.000Z</time>
</trkpt>
<trkpt lat="41.8630217" lon="13.7780300">
<ele>1369.67</ele>
<time>2024-08-19T10:43:34.000Z</time>
</trkpt>
<trkpt lat="41.8628550" lon="13.7782400">
<ele>1369.34</ele>
<time>2024-08-19T10:43:38.000Z</time>
</trkpt>
<trkpt lat="41.8626317" lon="13.7783550">
<ele>1372.10</ele>
<time>2024-08-19T10:43:42.000Z</time>
</trkpt>
<trkpt lat="41.8624183" lon="13.7783300">
<ele>1375.19</ele>
<time>2024-08-19T10:43:46.000Z</time>
</trkpt>
<trkpt lat="41.8622183" lon="13.7782100">
<ele>1377.03</ele>
<time>2024-08-19T10:43:50.000Z</time>
</trkpt>
<trkpt lat="41.8620650" lon="13.7780067">
<ele>1375.97</ele>
<time>2024-08-19T10:43:53.000Z</time>
</trkpt>
<trkpt lat="41.8619333" lon="13.7778417">
<ele>1375.25</ele>
<time>2024-08-19T10:43:56.000Z</time>
</trkpt>
<trkpt lat="41.8617600" lon="13.7777450">
<ele>1374.10</ele>
<time>2024-08-19T10:43:59.000Z</time>
</trkpt>
<trkpt lat="41.8615750" lon="13.7776983">
<ele>1372.91</ele>
<time>2024-08-19T10:44:02.000Z</time>
</trkpt>
<trkpt lat="41.8613750" lon="13.7777317">
<ele>1369.74</ele>
<time>2024-08-19T10:44:05.000Z</time>
</trkpt>
<trkpt lat="41.8612033" lon="13.7778667">
<ele>1368.20</ele>
<time>2024-08-19T10:44:08.000Z</time>
</trkpt>
<trkpt lat="41.8610283" lon="13.7780583">
<ele>1367.88</ele>
<time>2024-08-19T10:44:12.000Z</time>
</trkpt>
<trkpt lat="41.8608683" lon="13.7782733">
<ele>1364.77</ele>
<time>2024-08-19T10:44:16.000Z</time>
</trkpt>
<trkpt lat="41.8607050" lon="13.7784967">
<ele>1365.06</ele>
<time>2024-08-19T10:44:20.000Z</time>
</trkpt>
<trkpt lat="41.8605400" lon="13.7786983">
<ele>1365.65</ele>
<time>2024-08-19T10:44:24.000Z</time>
</trkpt>
<trkpt lat="41.8603533" lon="13.7788783">
<ele>1363.94</ele>
<time>2024-08-19T10:44:28.000Z</time>
</trkpt>
<trkpt lat="41.8601883" lon="13.7789767">
<ele>1361.76</ele>
<time>2024-08-19T10:44:31.000Z</time>
</trkpt>
<trkpt lat="41.8600050" lon="13.7790100">
<ele>1359.86</ele>
<time>2024-08-19T10:44:34.000Z</time>
</trkpt>
<trkpt lat="41.8597933" lon="13.7790267">
<ele>1358.98</ele>
<time>2024-08-19T10:44:37.000Z</time>
</trkpt>
<trkpt lat="41.8595767" lon="13.7790183">
<ele>1356.94</ele>
<time>2024-08-19T10:44:40.000Z</time>
</trkpt>
<trkpt lat="41.8593517" lon="13.7790233">
<ele>1355.35</ele>
<time>2024-08-19T10:44:43.000Z</time>
</trkpt>
<trkpt lat="41.8591183" lon="13.7791067">
<ele>1352.74</ele>
<time>2024-08-19T10:44:46.000Z</time>
</trkpt>
<trkpt lat="41.8588733" lon="13.7792033">
<ele>1349.32</ele>
<time>2024-08-19T10:44:49.000Z</time>
</trkpt>
<trkpt lat="41.8586333" lon="13.7792817">
<ele>1347.04</ele>
<time>2024-08-19T10:44:52.000Z</time>
</trkpt>
<trkpt lat="41.8583967" lon="13.7793483">
<ele>1346.24</ele>
<time>2024-08-19T10:44:55.000Z</time>
</trkpt>
<trkpt lat="41.8581400" lon="13.7793617">
<ele>1345.28</ele>
<time>2024-08-19T10:44:58.000Z</time>
</trkpt>
<trkpt lat="41.8579517" lon="13.7794000">
<ele>1347.10</ele>
<time>2024-08-19T10:45:00.000Z</time>
</trkpt>
<trkpt lat="41.8576833" lon="13.7794067">
<ele>1347.42</ele>
<time>2024-08-19T10:45:03.000Z</time>
</trkpt>
<trkpt lat="41.8575050" lon="13.7793550">
<ele>1347.15</ele>
<time>2024-08-19T10:45:05.000Z</time>
</trkpt>
<trkpt lat="41.8573200" lon="13.7792917">
<ele>1346.39</ele>
<time>2024-08-19T10:45:07.000Z</time>
</trkpt>
<trkpt lat="41.8571433" lon="13.7792167">
<ele>1346.16</ele>
<time>2024-08-19T10:45:09.000Z</time>
</trkpt>
<trkpt lat="41.8569550" lon="13.7791767">
<ele>1345.48</ele>
<time>2024-08-19T10:45:11.000Z</time>
</trkpt>
<trkpt lat="41.8567617" lon="13.7791800">
<ele>1343.31</ele>
<time>2024-08-19T10:45:13.000Z</time>
</trkpt>
<trkpt lat="41.8565717" lon="13.7791717">
<ele>1341.31</ele>
<time>2024-08-19T10:45:15.000Z</time>
</trkpt>
<trkpt lat="41.8563900" lon="13.7791217">
<ele>1339.69</ele>
<time>2024-08-19T10:45:17.000Z</time>
</trkpt>
<trkpt lat="41.8562033" lon="13.7790550">
<ele>1338.25</ele>
<time>2024-08-19T10:45:19.000Z</time>
</trkpt>
<trkpt lat="41.8560100" lon="13.7790417">
<ele>1337.79</ele>
<time>2024-08-19T10:45:21.000Z</time>
</trkpt>
<trkpt lat="41.8558100" lon="13.7790517">
<ele>1336.83</ele>
<time>2024-08-19T10:45:23.000Z</time>
</trkpt>
<trkpt lat="41.8556250" lon="13.7790700">
<ele>1334.45</ele>
<time>2024-08-19T10:45:25.000Z</time>
</trkpt>
<trkpt lat="41.8553650" lon="13.7791267">
<ele>1332.13</ele>
<time>2024-08-19T10:45:28.000Z</time>
</trkpt>
<trkpt lat="41.8551083" lon="13.7790767">
<ele>1331.78</ele>
<time>2024-08-19T10:45:31.000Z</time>
</trkpt>
<trkpt lat="41.8548917" lon="13.7788700">
<ele>1332.81</ele>
<time>2024-08-19T10:45:34.000Z</time>
</trkpt>
<trkpt lat="41.8547750" lon="13.7786783">
<ele>1333.20</ele>
<time>2024-08-19T10:45:36.000Z</time>
</trkpt>
<trkpt lat="41.8546850" lon="13.7783167">
<ele>1331.33</ele>
<time>2024-08-19T10:45:39.000Z</time>
</trkpt>
<trkpt lat="41.8546817" lon="13.7779733">
<ele>1329.60</ele>
<time>2024-08-19T10:45:42.000Z</time>
</trkpt>
<trkpt lat="41.8547900" lon="13.7776600">
<ele>1328.72</ele>
<time>2024-08-19T10:45:45.000Z</time>
</trkpt>
<trkpt lat="41.8549000" lon="13.7773717">
<ele>1329.95</ele>
<time>2024-08-19T10:45:48.000Z</time>
</trkpt>
<trkpt lat="41.8550217" lon="13.7770933">
<ele>1330.59</ele>
<time>2024-08-19T10:45:51.000Z</time>
</trkpt>
<trkpt lat="41.8551917" lon="13.7768750">
<ele>1330.58</ele>
<time>2024-08-19T10:45:54.000Z</time>
</trkpt>
<trkpt lat="41.8553450" lon="13.7766533">
<ele>1331.50</ele>
<time>2024-08-19T10:45:57.000Z</time>
</trkpt>
<trkpt lat="41.8552850" lon="13.7763767">
<ele>1334.21</ele>
<time>2024-08-19T10:46:01.000Z</time>
</trkpt>
<trkpt lat="41.8550833" lon="13.7764633">
<ele>1333.14</ele>
<time>2024-08-19T10:46:04.000Z</time>
</trkpt>
<trkpt lat="41.8549617" lon="13.7767250">
<ele>1331.62</ele>
<time>2024-08-19T10:46:07.000Z</time>
</trkpt>
<trkpt lat="41.8548633" lon="13.7769867">
<ele>1329.70</ele>
<time>2024-08-19T10:46:10.000Z</time>
</trkpt>
<trkpt lat="41.8547517" lon="13.7772500">
<ele>1329.45</ele>
<time>2024-08-19T10:46:13.000Z</time>
</trkpt>
<trkpt lat="41.8546067" lon="13.7775350">
<ele>1328.97</ele>
<time>2024-08-19T10:46:16.000Z</time>
</trkpt>
<trkpt lat="41.8544433" lon="13.7777867">
<ele>1328.67</ele>
<time>2024-08-19T10:46:19.000Z</time>
</trkpt>
<trkpt lat="41.8543433" lon="13.7781000">
<ele>1325.40</ele>
<time>2024-08-19T10:46:22.000Z</time>
</trkpt>
<trkpt lat="41.8543367" lon="13.7783417">
<ele>1322.80</ele>
<time>2024-08-19T10:46:24.000Z</time>
</trkpt>
<trkpt lat="41.8543717" lon="13.7785883">
<ele>1319.46</ele>
<time>2024-08-19T10:46:26.000Z</time>
</trkpt>
<trkpt lat="41.8544283" lon="13.7788333">
<ele>1316.33</ele>
<time>2024-08-19T10:46:28.000Z</time>
</trkpt>
<trkpt lat="41.8545317" lon="13.7790617">
<ele>1313.23</ele>
<time>2024-08-19T10:46:30.000Z</time>
</trkpt>
<trkpt lat="41.8546317" lon="13.7792967">
<ele>1311.22</ele>
<time>2024-08-19T10:46:32.000Z</time>
</trkpt>
<trkpt lat="41.8547550" lon="13.7795600">
<ele>1307.16</ele>
<time>2024-08-19T10:46:34.000Z</time>
</trkpt>
<trkpt lat="41.8548550" lon="13.7797950">
<ele>1306.03</ele>
<time>2024-08-19T10:46:36.000Z</time>
</trkpt>
<trkpt lat="41.8549783" lon="13.7800283">
<ele>1306.13</ele>
<time>2024-08-19T10:46:38.000Z</time>
</trkpt>
<trkpt lat="41.8551283" lon="13.7802417">
<ele>1306.09</ele>
<time>2024-08-19T10:46:40.000Z</time>
</trkpt>
<trkpt lat="41.8553100" lon="13.7804100">
<ele>1306.26</ele>
<time>2024-08-19T10:46:42.000Z</time>
</trkpt>
<trkpt lat="41.8555150" lon="13.7805467">
<ele>1305.29</ele>
<time>2024-08-19T10:46:44.000Z</time>
</trkpt>
<trkpt lat="41.8557233" lon="13.7806233">
<ele>1304.00</ele>
<time>2024-08-19T10:46:46.000Z</time>
</trkpt>
<trkpt lat="41.8559317" lon="13.7806583">
<ele>1301.80</ele>
<time>2024-08-19T10:46:48.000Z</time>
</trkpt>
<trkpt lat="41.8561300" lon="13.7806550">
<ele>1300.22</ele>
<time>2024-08-19T10:46:50.000Z</time>
</trkpt>
<trkpt lat="41.8563400" lon="13.7806300">
<ele>1299.15</ele>
<time>2024-08-19T10:46:52.000Z</time>
</trkpt>
<trkpt lat="41.8565317" lon="13.7806167">
<ele>1299.01</ele>
<time>2024-08-19T10:46:54.000Z</time>
</trkpt>
<trkpt lat="41.8567983" lon="13.7806683">
<ele>1301.70</ele>
<time>2024-08-19T10:46:57.000Z</time>
</trkpt>
<trkpt lat="41.8569883" lon="13.7807217">
<ele>1302.28</ele>
<time>2024-08-19T10:46:59.000Z</time>
</trkpt>
<trkpt lat="41.8572417" lon="13.7807433">
<ele>1298.58</ele>
<time>2024-08-19T10:47:02.000Z</time>
</trkpt>
<trkpt lat="41.8574550" lon="13.7808967">
<ele>1295.08</ele>
<time>2024-08-19T10:47:05.000Z</time>
</trkpt>
<trkpt lat="41.8576633" lon="13.7811267">
<ele>1293.41</ele>
<time>2024-08-19T10:47:08.000Z</time>
</trkpt>
<trkpt lat="41.8578233" lon="13.7812633">
<ele>1292.23</ele>
<time>2024-08-19T10:47:10.000Z</time>
</trkpt>
<trkpt lat="41.8580000" lon="13.7813633">
<ele>1292.02</ele>
<time>2024-08-19T10:47:12.000Z</time>
</trkpt>
<trkpt lat="41.8581833" lon="13.7814717">
<ele>1292.33</ele>
<time>2024-08-19T10:47:14.000Z</time>
</trkpt>
<trkpt lat="41.8584333" lon="13.7815933">
<ele>1291.93</ele>
<time>2024-08-19T10:47:17.000Z</time>
</trkpt>
<trkpt lat="41.8586317" lon="13.7816283">
<ele>1291.44</ele>
<time>2024-08-19T10:47:19.000Z</time>
</trkpt>
<trkpt lat="41.8588033" lon="13.7815433">
<ele>1288.95</ele>
<time>2024-08-19T10:47:21.000Z</time>
</trkpt>
<trkpt lat="41.8590017" lon="13.7813150">
<ele>1285.52</ele>
<time>2024-08-19T10:47:24.000Z</time>
</trkpt>
<trkpt lat="41.8591767" lon="13.7812017">
<ele>1294.51</ele>
<time>2024-08-19T10:47:28.000Z</time>
</trkpt>
<trkpt lat="41.8592433" lon="13.7814633">
<ele>1300.19</ele>
<time>2024-08-19T10:47:32.000Z</time>
</trkpt>
<trkpt lat="41.8590817" lon="13.7816367">
<ele>1297.44</ele>
<time>2024-08-19T10:47:35.000Z</time>
</trkpt>
<trkpt lat="41.8588750" lon="13.7817733">
<ele>1293.19</ele>
<time>2024-08-19T10:47:38.000Z</time>
</trkpt>
<trkpt lat="41.8586850" lon="13.7818867">
<ele>1285.43</ele>
<time>2024-08-19T10:47:41.000Z</time>
</trkpt>
<trkpt lat="41.8584783" lon="13.7819533">
<ele>1277.60</ele>
<time>2024-08-19T10:47:44.000Z</time>
</trkpt>
<trkpt lat="41.8582617" lon="13.7819100">
<ele>1276.32</ele>
<time>2024-08-19T10:47:47.000Z</time>
</trkpt>
<trkpt lat="41.8580300" lon="13.7818450">
<ele>1274.34</ele>
<time>2024-08-19T10:47:50.000Z</time>
</trkpt>
<trkpt lat="41.8577917" lon="13.7817900">
<ele>1272.83</ele>
<time>2024-08-19T10:47:53.000Z</time>
</trkpt>
<trkpt lat="41.8575333" lon="13.7817817">
<ele>1273.07</ele>
<time>2024-08-19T10:47:56.000Z</time>
</trkpt>
<trkpt lat="41.8572650" lon="13.7818033">
<ele>1270.65</ele>
<time>2024-08-19T10:47:59.000Z</time>
</trkpt>
<trkpt lat="41.8570817" lon="13.7818267">
<ele>1269.74</ele>
<time>2024-08-19T10:48:01.000Z</time>
</trkpt>
<trkpt lat="41.8568883" lon="13.7818617">
<ele>1268.65</ele>
<time>2024-08-19T10:48:03.000Z</time>
</trkpt>
<trkpt lat="41.8566883" lon="13.7818950">
<ele>1266.64</ele>
<time>2024-08-19T10:48:05.000Z</time>
</trkpt>
<trkpt lat="41.8564967" lon="13.7819517">
<ele>1264.38</ele>
<time>2024-08-19T10:48:07.000Z</time>
</trkpt>
<trkpt lat="41.8563267" lon="13.7820650">
<ele>1262.62</ele>
<time>2024-08-19T10:48:09.000Z</time>
</trkpt>
<trkpt lat="41.8561783" lon="13.7822333">
<ele>1262.47</ele>
<time>2024-08-19T10:48:11.000Z</time>
</trkpt>
<trkpt lat="41.8560533" lon="13.7824283">
<ele>1263.42</ele>
<time>2024-08-19T10:48:13.000Z</time>
</trkpt>
<trkpt lat="41.8559000" lon="13.7825867">
<ele>1263.10</ele>
<time>2024-08-19T10:48:15.000Z</time>
</trkpt>
<trkpt lat="41.8557067" lon="13.7826550">
<ele>1261.39</ele>
<time>2024-08-19T10:48:17.000Z</time>
</trkpt>
<trkpt lat="41.8555283" lon="13.7826183">
<ele>1261.56</ele>
<time>2024-08-19T10:48:19.000Z</time>
</trkpt>
<trkpt lat="41.8553550" lon="13.7825000">
<ele>1260.15</ele>
<time>2024-08-19T10:48:21.000Z</time>
</trkpt>
<trkpt lat="41.8551817" lon="13.7823883">
<ele>1257.87</ele>
<time>2024-08-19T10:48:23.000Z</time>
</trkpt>
<trkpt lat="41.8549967" lon="13.7823033">
<ele>1256.72</ele>
<time>2024-08-19T10:48:25.000Z</time>
</trkpt>
<trkpt lat="41.8548167" lon="13.7822167">
<ele>1255.05</ele>
<time>2024-08-19T10:48:27.000Z</time>
</trkpt>
<trkpt lat="41.8546333" lon="13.7821367">
<ele>1253.31</ele>
<time>2024-08-19T10:48:29.000Z</time>
</trkpt>
<trkpt lat="41.8543700" lon="13.7820967">
<ele>1252.16</ele>
<time>2024-08-19T10:48:32.000Z</time>
</trkpt>
<trkpt lat="41.8541133" lon="13.7820967">
<ele>1250.55</ele>
<time>2024-08-19T10:48:35.000Z</time>
</trkpt>
<trkpt lat="41.8538650" lon="13.7820933">
<ele>1247.49</ele>
<time>2024-08-19T10:48:38.000Z</time>
</trkpt>
<trkpt lat="41.8536483" lon="13.7820233">
<ele>1246.43</ele>
<time>2024-08-19T10:48:41.000Z</time>
</trkpt>
<trkpt lat="41.8534633" lon="13.7818333">
<ele>1244.83</ele>
<time>2024-08-19T10:48:44.000Z</time>
</trkpt>
<trkpt lat="41.8532950" lon="13.7815900">
<ele>1242.24</ele>
<time>2024-08-19T10:48:47.000Z</time>
</trkpt>
<trkpt lat="41.8531050" lon="13.7813567">
<ele>1242.47</ele>
<time>2024-08-19T10:48:50.000Z</time>
</trkpt>
<trkpt lat="41.8529017" lon="13.7811883">
<ele>1241.83</ele>
<time>2024-08-19T10:48:53.000Z</time>
</trkpt>
<trkpt lat="41.8527600" lon="13.7809750">
<ele>1240.34</ele>
<time>2024-08-19T10:48:56.000Z</time>
</trkpt>
<trkpt lat="41.8527183" lon="13.7806700">
<ele>1239.34</ele>
<time>2024-08-19T10:48:59.000Z</time>
</trkpt>
<trkpt lat="41.8526800" lon="13.7804100">
<ele>1236.39</ele>
<time>2024-08-19T10:49:02.000Z</time>
</trkpt>
<trkpt lat="41.8526383" lon="13.7801717">
<ele>1234.75</ele>
<time>2024-08-19T10:49:05.000Z</time>
</trkpt>
<trkpt lat="41.8525983" lon="13.7799183">
<ele>1232.85</ele>
<time>2024-08-19T10:49:08.000Z</time>
</trkpt>
<trkpt lat="41.8525517" lon="13.7796650">
<ele>1230.51</ele>
<time>2024-08-19T10:49:11.000Z</time>
</trkpt>
<trkpt lat="41.8524633" lon="13.7793817">
<ele>1228.46</ele>
<time>2024-08-19T10:49:14.000Z</time>
</trkpt>
<trkpt lat="41.8523517" lon="13.7791150">
<ele>1226.60</ele>
<time>2024-08-19T10:49:17.000Z</time>
</trkpt>
<trkpt lat="41.8522150" lon="13.7788417">
<ele>1226.25</ele>
<time>2024-08-19T10:49:20.000Z</time>
</trkpt>
<trkpt lat="41.8520767" lon="13.7785650">
<ele>1227.38</ele>
<time>2024-08-19T10:49:23.000Z</time>
</trkpt>
<trkpt lat="41.8519317" lon="13.7782917">
<ele>1230.66</ele>
<time>2024-08-19T10:49:26.000Z</time>
</trkpt>
<trkpt lat="41.8518067" lon="13.7780050">
<ele>1231.40</ele>
<time>2024-08-19T10:49:29.000Z</time>
</trkpt>
<trkpt lat="41.8516967" lon="13.7777700">
<ele>1231.35</ele>
<time>2024-08-19T10:49:32.000Z</time>
</trkpt>
<trkpt lat="41.8515700" lon="13.7775550">
<ele>1231.67</ele>
<time>2024-08-19T10:49:36.000Z</time>
</trkpt>
<trkpt lat="41.8513933" lon="13.7774917">
<ele>1229.34</ele>
<time>2024-08-19T10:49:41.000Z</time>
</trkpt>
<trkpt lat="41.8511883" lon="13.7776133">
<ele>1226.76</ele>
<time>2024-08-19T10:49:45.000Z</time>
</trkpt>
<trkpt lat="41.8509767" lon="13.7777617">
<ele>1226.53</ele>
<time>2024-08-19T10:49:49.000Z</time>
</trkpt>
<trkpt lat="41.8508083" lon="13.7778717">
<ele>1226.17</ele>
<time>2024-08-19T10:49:52.000Z</time>
</trkpt>
<trkpt lat="41.8506417" lon="13.7779717">
<ele>1226.20</ele>
<time>2024-08-19T10:49:55.000Z</time>
</trkpt>
<trkpt lat="41.8504267" lon="13.7781017">
<ele>1227.45</ele>
<time>2024-08-19T10:49:59.000Z</time>
</trkpt>
<trkpt lat="41.8502583" lon="13.7782000">
<ele>1228.07</ele>
<time>2024-08-19T10:50:02.000Z</time>
</trkpt>
<trkpt lat="41.8500950" lon="13.7783033">
<ele>1227.95</ele>
<time>2024-08-19T10:50:05.000Z</time>
</trkpt>
<trkpt lat="41.8498917" lon="13.7784367">
<ele>1228.88</ele>
<time>2024-08-19T10:50:09.000Z</time>
</trkpt>
<trkpt lat="41.8496900" lon="13.7786000">
<ele>1229.38</ele>
<time>2024-08-19T10:50:13.000Z</time>
</trkpt>
<trkpt lat="41.8495083" lon="13.7788100">
<ele>1229.98</ele>
<time>2024-08-19T10:50:17.000Z</time>
</trkpt>
<trkpt lat="41.8493350" lon="13.7790350">
<ele>1229.96</ele>
<time>2024-08-19T10:50:21.000Z</time>
</trkpt>
<trkpt lat="41.8491933" lon="13.7792050">
<ele>1228.92</ele>
<time>2024-08-19T10:50:24.000Z</time>
</trkpt>
<trkpt lat="41.8490450" lon="13.7793900">
<ele>1227.25</ele>
<time>2024-08-19T10:50:27.000Z</time>
</trkpt>
<trkpt lat="41.8488883" lon="13.7795600">
<ele>1226.73</ele>
<time>2024-08-19T10:50:30.000Z</time>
</trkpt>
<trkpt lat="41.8487100" lon="13.7797050">
<ele>1226.34</ele>
<time>2024-08-19T10:50:33.000Z</time>
</trkpt>
<trkpt lat="41.8485167" lon="13.7798350">
<ele>1226.01</ele>
<time>2024-08-19T10:50:36.000Z</time>
</trkpt>
<trkpt lat="41.8483150" lon="13.7799483">
<ele>1225.17</ele>
<time>2024-08-19T10:50:39.000Z</time>
</trkpt>
<trkpt lat="41.8481050" lon="13.7800450">
<ele>1224.53</ele>
<time>2024-08-19T10:50:42.000Z</time>
</trkpt>
<trkpt lat="41.8479000" lon="13.7801483">
<ele>1223.95</ele>
<time>2024-08-19T10:50:45.000Z</time>
</trkpt>
<trkpt lat="41.8476950" lon="13.7802583">
<ele>1223.41</ele>
<time>2024-08-19T10:50:48.000Z</time>
</trkpt>
<trkpt lat="41.8474983" lon="13.7803633">
<ele>1224.13</ele>
<time>2024-08-19T10:50:51.000Z</time>
</trkpt>
<trkpt lat="41.8473000" lon="13.7804550">
<ele>1225.30</ele>
<time>2024-08-19T10:50:54.000Z</time>
</trkpt>
<trkpt lat="41.8470983" lon="13.7805467">
<ele>1224.36</ele>
<time>2024-08-19T10:50:57.000Z</time>
</trkpt>
<trkpt lat="41.8469050" lon="13.7806417">
<ele>1223.14</ele>
<time>2024-08-19T10:51:00.000Z</time>
</trkpt>
<trkpt lat="41.8467233" lon="13.7807700">
<ele>1223.31</ele>
<time>2024-08-19T10:51:03.000Z</time>
</trkpt>
<trkpt lat="41.8465533" lon="13.7809167">
<ele>1222.10</ele>
<time>2024-08-19T10:51:06.000Z</time>
</trkpt>
<trkpt lat="41.8463883" lon="13.7810600">
<ele>1222.44</ele>
<time>2024-08-19T10:51:09.000Z</time>
</trkpt>
<trkpt lat="41.8462300" lon="13.7811983">
<ele>1222.06</ele>
<time>2024-08-19T10:51:12.000Z</time>
</trkpt>
<trkpt lat="41.8460633" lon="13.7813383">
<ele>1222.07</ele>
<time>2024-08-19T10:51:15.000Z</time>
</trkpt>
<trkpt lat="41.8459033" lon="13.7814700">
<ele>1221.94</ele>
<time>2024-08-19T10:51:18.000Z</time>
</trkpt>
<trkpt lat="41.8457150" lon="13.7816450">
<ele>1223.07</ele>
<time>2024-08-19T10:51:22.000Z</time>
</trkpt>
<trkpt lat="41.8455250" lon="13.7818017">
<ele>1223.29</ele>
<time>2024-08-19T10:51:26.000Z</time>
</trkpt>
<trkpt lat="41.8453300" lon="13.7819733">
<ele>1222.72</ele>
<time>2024-08-19T10:51:30.000Z</time>
</trkpt>
<trkpt lat="41.8451367" lon="13.7821500">
<ele>1223.42</ele>
<time>2024-08-19T10:51:34.000Z</time>
</trkpt>
<trkpt lat="41.8449400" lon="13.7823033">
<ele>1222.28</ele>
<time>2024-08-19T10:51:38.000Z</time>
</trkpt>
<trkpt lat="41.8447467" lon="13.7824650">
<ele>1221.06</ele>
<time>2024-08-19T10:51:42.000Z</time>
</trkpt>
<trkpt lat="41.8445650" lon="13.7826367">
<ele>1221.08</ele>
<time>2024-08-19T10:51:46.000Z</time>
</trkpt>
<trkpt lat="41.8443783" lon="13.7828217">
<ele>1221.75</ele>
<time>2024-08-19T10:51:50.000Z</time>
</trkpt>
<trkpt lat="41.8442133" lon="13.7830150">
<ele>1222.38</ele>
<time>2024-08-19T10:51:54.000Z</time>
</trkpt>
<trkpt lat="41.8440367" lon="13.7832017">
<ele>1223.14</ele>
<time>2024-08-19T10:51:58.000Z</time>
</trkpt>
<trkpt lat="41.8438683" lon="13.7833850">
<ele>1222.36</ele>
<time>2024-08-19T10:52:02.000Z</time>
</trkpt>
<trkpt lat="41.8436967" lon="13.7835767">
<ele>1222.46</ele>
<time>2024-08-19T10:52:06.000Z</time>
</trkpt>
<trkpt lat="41.8435350" lon="13.7837667">
<ele>1223.17</ele>
<time>2024-08-19T10:52:10.000Z</time>
</trkpt>
<trkpt lat="41.8433533" lon="13.7839567">
<ele>1223.19</ele>
<time>2024-08-19T10:52:14.000Z</time>
</trkpt>
<trkpt lat="41.8431767" lon="13.7841567">
<ele>1223.01</ele>
<time>2024-08-19T10:52:18.000Z</time>
</trkpt>
<trkpt lat="41.8430233" lon="13.7842900">
<ele>1222.82</ele>
<time>2024-08-19T10:52:21.000Z</time>
</trkpt>
<trkpt lat="41.8428100" lon="13.7844183">
<ele>1222.12</ele>
<time>2024-08-19T10:52:25.000Z</time>
</trkpt>
<trkpt lat="41.8425950" lon="13.7845450">
<ele>1221.97</ele>
<time>2024-08-19T10:52:29.000Z</time>
</trkpt>
<trkpt lat="41.8424217" lon="13.7846433">
<ele>1221.30</ele>
<time>2024-08-19T10:52:32.000Z</time>
</trkpt>
<trkpt lat="41.8422433" lon="13.7847417">
<ele>1220.68</ele>
<time>2024-08-19T10:52:35.000Z</time>
</trkpt>
<trkpt lat="41.8420650" lon="13.7848417">
<ele>1220.01</ele>
<time>2024-08-19T10:52:38.000Z</time>
</trkpt>
<trkpt lat="41.8418733" lon="13.7849433">
<ele>1219.19</ele>
<time>2024-08-19T10:52:41.000Z</time>
</trkpt>
<trkpt lat="41.8416733" lon="13.7850517">
<ele>1218.34</ele>
<time>2024-08-19T10:52:44.000Z</time>
</trkpt>
<trkpt lat="41.8414683" lon="13.7851650">
<ele>1222.58</ele>
<time>2024-08-19T10:52:47.000Z</time>
</trkpt>
<trkpt lat="41.8412550" lon="13.7852817">
<ele>1218.61</ele>
<time>2024-08-19T10:52:50.000Z</time>
</trkpt>
<trkpt lat="41.8410200" lon="13.7854100">
<ele>1214.80</ele>
<time>2024-08-19T10:52:53.000Z</time>
</trkpt>
<trkpt lat="41.8407767" lon="13.7855067">
<ele>1212.15</ele>
<time>2024-08-19T10:52:56.000Z</time>
</trkpt>
<trkpt lat="41.8405967" lon="13.7855417">
<ele>1211.70</ele>
<time>2024-08-19T10:52:58.000Z</time>
</trkpt>
<trkpt lat="41.8404167" lon="13.7855533">
<ele>1211.18</ele>
<time>2024-08-19T10:53:00.000Z</time>
</trkpt>
<trkpt lat="41.8402350" lon="13.7855700">
<ele>1209.95</ele>
<time>2024-08-19T10:53:02.000Z</time>
</trkpt>
<trkpt lat="41.8400567" lon="13.7856017">
<ele>1209.14</ele>
<time>2024-08-19T10:53:04.000Z</time>
</trkpt>
<trkpt lat="41.8398783" lon="13.7856417">
<ele>1208.27</ele>
<time>2024-08-19T10:53:06.000Z</time>
</trkpt>
<trkpt lat="41.8396200" lon="13.7857133">
<ele>1206.93</ele>
<time>2024-08-19T10:53:09.000Z</time>
</trkpt>
<trkpt lat="41.8393650" lon="13.7857767">
<ele>1207.12</ele>
<time>2024-08-19T10:53:12.000Z</time>
</trkpt>
<trkpt lat="41.8391233" lon="13.7858383">
<ele>1206.26</ele>
<time>2024-08-19T10:53:15.000Z</time>
</trkpt>
<trkpt lat="41.8388883" lon="13.7859233">
<ele>1206.25</ele>
<time>2024-08-19T10:53:18.000Z</time>
</trkpt>
<trkpt lat="41.8386733" lon="13.7859983">
<ele>1207.46</ele>
<time>2024-08-19T10:53:21.000Z</time>
</trkpt>
<trkpt lat="41.8384450" lon="13.7860667">
<ele>1206.85</ele>
<time>2024-08-19T10:53:24.000Z</time>
</trkpt>
<trkpt lat="41.8382300" lon="13.7861450">
<ele>1206.90</ele>
<time>2024-08-19T10:53:27.000Z</time>
</trkpt>
<trkpt lat="41.8380083" lon="13.7862200">
<ele>1207.48</ele>
<time>2024-08-19T10:53:30.000Z</time>
</trkpt>
<trkpt lat="41.8377983" lon="13.7862750">
<ele>1206.99</ele>
<time>2024-08-19T10:53:33.000Z</time>
</trkpt>
<trkpt lat="41.8375867" lon="13.7863417">
<ele>1206.97</ele>
<time>2024-08-19T10:53:36.000Z</time>
</trkpt>
<trkpt lat="41.8373800" lon="13.7864033">
<ele>1206.28</ele>
<time>2024-08-19T10:53:39.000Z</time>
</trkpt>
<trkpt lat="41.8371900" lon="13.7864633">
<ele>1205.70</ele>
<time>2024-08-19T10:53:42.000Z</time>
</trkpt>
<trkpt lat="41.8370000" lon="13.7865300">
<ele>1207.13</ele>
<time>2024-08-19T10:53:45.000Z</time>
</trkpt>
<trkpt lat="41.8368117" lon="13.7865967">
<ele>1208.75</ele>
<time>2024-08-19T10:53:48.000Z</time>
</trkpt>
<trkpt lat="41.8366133" lon="13.7866617">
<ele>1208.46</ele>
<time>2024-08-19T10:53:51.000Z</time>
</trkpt>
<trkpt lat="41.8364133" lon="13.7867217">
<ele>1207.03</ele>
<time>2024-08-19T10:53:54.000Z</time>
</trkpt>
<trkpt lat="41.8361950" lon="13.7868083">
<ele>1205.39</ele>
<time>2024-08-19T10:53:57.000Z</time>
</trkpt>
<trkpt lat="41.8359933" lon="13.7868783">
<ele>1205.37</ele>
<time>2024-08-19T10:54:00.000Z</time>
</trkpt>
<trkpt lat="41.8357983" lon="13.7869450">
<ele>1205.20</ele>
<time>2024-08-19T10:54:03.000Z</time>
</trkpt>
<trkpt lat="41.8356033" lon="13.7869933">
<ele>1206.16</ele>
<time>2024-08-19T10:54:06.000Z</time>
</trkpt>
<trkpt lat="41.8354067" lon="13.7870333">
<ele>1205.66</ele>
<time>2024-08-19T10:54:09.000Z</time>
</trkpt>
<trkpt lat="41.8351967" lon="13.7870750">
<ele>1204.61</ele>
<time>2024-08-19T10:54:12.000Z</time>
</trkpt>
<trkpt lat="41.8349833" lon="13.7871117">
<ele>1202.96</ele>
<time>2024-08-19T10:54:15.000Z</time>
</trkpt>
<trkpt lat="41.8347783" lon="13.7871583">
<ele>1200.48</ele>
<time>2024-08-19T10:54:18.000Z</time>
</trkpt>
<trkpt lat="41.8345567" lon="13.7872033">
<ele>1198.75</ele>
<time>2024-08-19T10:54:21.000Z</time>
</trkpt>
<trkpt lat="41.8343400" lon="13.7872533">
<ele>1198.86</ele>
<time>2024-08-19T10:54:24.000Z</time>
</trkpt>
<trkpt lat="41.8341117" lon="13.7873017">
<ele>1198.07</ele>
<time>2024-08-19T10:54:27.000Z</time>
</trkpt>
<trkpt lat="41.8338833" lon="13.7873467">
<ele>1198.84</ele>
<time>2024-08-19T10:54:30.000Z</time>
</trkpt>
<trkpt lat="41.8336700" lon="13.7873967">
<ele>1199.64</ele>
<time>2024-08-19T10:54:33.000Z</time>
</trkpt>
<trkpt lat="41.8334583" lon="13.7874400">
<ele>1199.66</ele>
<time>2024-08-19T10:54:36.000Z</time>
</trkpt>
<trkpt lat="41.8332583" lon="13.7874833">
<ele>1198.91</ele>
<time>2024-08-19T10:54:39.000Z</time>
</trkpt>
<trkpt lat="41.8330583" lon="13.7875217">
<ele>1198.00</ele>
<time>2024-08-19T10:54:42.000Z</time>
</trkpt>
<trkpt lat="41.8328667" lon="13.7875667">
<ele>1196.98</ele>
<time>2024-08-19T10:54:45.000Z</time>
</trkpt>
<trkpt lat="41.8326800" lon="13.7876100">
<ele>1195.89</ele>
<time>2024-08-19T10:54:48.000Z</time>
</trkpt>
<trkpt lat="41.8324917" lon="13.7876600">
<ele>1197.25</ele>
<time>2024-08-19T10:54:51.000Z</time>
</trkpt>
<trkpt lat="41.8322600" lon="13.7877150">
<ele>1205.77</ele>
<time>2024-08-19T10:54:55.000Z</time>
</trkpt>
<trkpt lat="41.8320667" lon="13.7877867">
<ele>1203.73</ele>
<time>2024-08-19T10:54:58.000Z</time>
</trkpt>
<trkpt lat="41.8318767" lon="13.7878333">
<ele>1198.84</ele>
<time>2024-08-19T10:55:01.000Z</time>
</trkpt>
<trkpt lat="41.8316917" lon="13.7878767">
<ele>1196.68</ele>
<time>2024-08-19T10:55:04.000Z</time>
</trkpt>
<trkpt lat="41.8314517" lon="13.7879400">
<ele>1195.57</ele>
<time>2024-08-19T10:55:08.000Z</time>
</trkpt>
<trkpt lat="41.8312750" lon="13.7879967">
<ele>1195.50</ele>
<time>2024-08-19T10:55:11.000Z</time>
</trkpt>
<trkpt lat="41.8310933" lon="13.7880533">
<ele>1195.20</ele>
<time>2024-08-19T10:55:14.000Z</time>
</trkpt>
<trkpt lat="41.8308650" lon="13.7881183">
<ele>1195.58</ele>
<time>2024-08-19T10:55:18.000Z</time>
</trkpt>
<trkpt lat="41.8306783" lon="13.7881650">
<ele>1195.34</ele>
<time>2024-08-19T10:55:21.000Z</time>
</trkpt>
<trkpt lat="41.8304883" lon="13.7882133">
<ele>1194.80</ele>
<time>2024-08-19T10:55:24.000Z</time>
</trkpt>
<trkpt lat="41.8302900" lon="13.7882667">
<ele>1193.49</ele>
<time>2024-08-19T10:55:27.000Z</time>
</trkpt>
<trkpt lat="41.8300983" lon="13.7883200">
<ele>1191.77</ele>
<time>2024-08-19T10:55:30.000Z</time>
</trkpt>
<trkpt lat="41.8298983" lon="13.7883700">
<ele>1190.99</ele>
<time>2024-08-19T10:55:33.000Z</time>
</trkpt>
<trkpt lat="41.8296950" lon="13.7884350">
<ele>1192.13</ele>
<time>2024-08-19T10:55:36.000Z</time>
</trkpt>
<trkpt lat="41.8294950" lon="13.7884933">
<ele>1193.12</ele>
<time>2024-08-19T10:55:39.000Z</time>
</trkpt>
<trkpt lat="41.8292967" lon="13.7885533">
<ele>1193.49</ele>
<time>2024-08-19T10:55:42.000Z</time>
</trkpt>
<trkpt lat="41.8290983" lon="13.7886033">
<ele>1193.16</ele>
<time>2024-08-19T10:55:45.000Z</time>
</trkpt>
<trkpt lat="41.8289183" lon="13.7886450">
<ele>1192.99</ele>
<time>2024-08-19T10:55:48.000Z</time>
</trkpt>
<trkpt lat="41.8287300" lon="13.7887017">
<ele>1192.00</ele>
<time>2024-08-19T10:55:51.000Z</time>
</trkpt>
<trkpt lat="41.8285517" lon="13.7887433">
<ele>1192.30</ele>
<time>2024-08-19T10:55:54.000Z</time>
</trkpt>
<trkpt lat="41.8283750" lon="13.7887900">
<ele>1192.35</ele>
<time>2024-08-19T10:55:57.000Z</time>
</trkpt>
<trkpt lat="41.8281917" lon="13.7888400">
<ele>1192.21</ele>
<time>2024-08-19T10:56:00.000Z</time>
</trkpt>
<trkpt lat="41.8280100" lon="13.7888917">
<ele>1192.95</ele>
<time>2024-08-19T10:56:03.000Z</time>
</trkpt>
<trkpt lat="41.8277833" lon="13.7889517">
<ele>1193.26</ele>
<time>2024-08-19T10:56:07.000Z</time>
</trkpt>
<trkpt lat="41.8276067" lon="13.7890017">
<ele>1193.81</ele>
<time>2024-08-19T10:56:10.000Z</time>
</trkpt>
<trkpt lat="41.8273783" lon="13.7890500">
<ele>1192.71</ele>
<time>2024-08-19T10:56:14.000Z</time>
</trkpt>
<trkpt lat="41.8271900" lon="13.7890933">
<ele>1191.86</ele>
<time>2024-08-19T10:56:17.000Z</time>
</trkpt>
<trkpt lat="41.8269800" lon="13.7891517">
<ele>1190.86</ele>
<time>2024-08-19T10:56:20.000Z</time>
</trkpt>
<trkpt lat="41.8267783" lon="13.7891983">
<ele>1191.15</ele>
<time>2024-08-19T10:56:23.000Z</time>
</trkpt>
<trkpt lat="41.8265717" lon="13.7892550">
<ele>1191.09</ele>
<time>2024-08-19T10:56:26.000Z</time>
</trkpt>
<trkpt lat="41.8263533" lon="13.7893067">
<ele>1191.21</ele>
<time>2024-08-19T10:56:29.000Z</time>
</trkpt>
<trkpt lat="41.8261383" lon="13.7893533">
<ele>1190.62</ele>
<time>2024-08-19T10:56:32.000Z</time>
</trkpt>
<trkpt lat="41.8259233" lon="13.7894100">
<ele>1189.50</ele>
<time>2024-08-19T10:56:35.000Z</time>
</trkpt>
<trkpt lat="41.8257167" lon="13.7894650">
<ele>1187.91</ele>
<time>2024-08-19T10:56:38.000Z</time>
</trkpt>
<trkpt lat="41.8255150" lon="13.7895117">
<ele>1188.09</ele>
<time>2024-08-19T10:56:41.000Z</time>
</trkpt>
<trkpt lat="41.8253050" lon="13.7895667">
<ele>1188.01</ele>
<time>2024-08-19T10:56:44.000Z</time>
</trkpt>
<trkpt lat="41.8250933" lon="13.7896233">
<ele>1187.29</ele>
<time>2024-08-19T10:56:47.000Z</time>
</trkpt>
<trkpt lat="41.8248850" lon="13.7896667">
<ele>1186.84</ele>
<time>2024-08-19T10:56:50.000Z</time>
</trkpt>
<trkpt lat="41.8246850" lon="13.7896900">
<ele>1185.74</ele>
<time>2024-08-19T10:56:53.000Z</time>
</trkpt>
<trkpt lat="41.8244850" lon="13.7896817">
<ele>1187.63</ele>
<time>2024-08-19T10:56:56.000Z</time>
</trkpt>
<trkpt lat="41.8243033" lon="13.7896317">
<ele>1188.47</ele>
<time>2024-08-19T10:56:59.000Z</time>
</trkpt>
<trkpt lat="41.8241233" lon="13.7895900">
<ele>1188.94</ele>
<time>2024-08-19T10:57:02.000Z</time>
</trkpt>
<trkpt lat="41.8239367" lon="13.7896100">
<ele>1190.89</ele>
<time>2024-08-19T10:57:05.000Z</time>
</trkpt>
<trkpt lat="41.8237417" lon="13.7896267">
<ele>1189.73</ele>
<time>2024-08-19T10:57:08.000Z</time>
</trkpt>
<trkpt lat="41.8235350" lon="13.7896367">
<ele>1188.13</ele>
<time>2024-08-19T10:57:11.000Z</time>
</trkpt>
<trkpt lat="41.8233333" lon="13.7896600">
<ele>1185.27</ele>
<time>2024-08-19T10:57:14.000Z</time>
</trkpt>
<trkpt lat="41.8231283" lon="13.7896967">
<ele>1180.95</ele>
<time>2024-08-19T10:57:17.000Z</time>
</trkpt>
<trkpt lat="41.8229250" lon="13.7897783">
<ele>1181.16</ele>
<time>2024-08-19T10:57:20.000Z</time>
</trkpt>
<trkpt lat="41.8227417" lon="13.7898750">
<ele>1181.93</ele>
<time>2024-08-19T10:57:23.000Z</time>
</trkpt>
<trkpt lat="41.8225467" lon="13.7899267">
<ele>1180.65</ele>
<time>2024-08-19T10:57:26.000Z</time>
</trkpt>
<trkpt lat="41.8223550" lon="13.7899033">
<ele>1182.62</ele>
<time>2024-08-19T10:57:29.000Z</time>
</trkpt>
<trkpt lat="41.8221167" lon="13.7898600">
<ele>1183.97</ele>
<time>2024-08-19T10:57:33.000Z</time>
</trkpt>
<trkpt lat="41.8219350" lon="13.7898633">
<ele>1185.07</ele>
<time>2024-08-19T10:57:36.000Z</time>
</trkpt>
<trkpt lat="41.8217450" lon="13.7899133">
<ele>1185.55</ele>
<time>2024-08-19T10:57:39.000Z</time>
</trkpt>
<trkpt lat="41.8215500" lon="13.7899500">
<ele>1181.88</ele>
<time>2024-08-19T10:57:42.000Z</time>
</trkpt>
<trkpt lat="41.8213517" lon="13.7899933">
<ele>1180.32</ele>
<time>2024-08-19T10:57:45.000Z</time>
</trkpt>
<trkpt lat="41.8211733" lon="13.7900483">
<ele>1181.15</ele>
<time>2024-08-19T10:57:48.000Z</time>
</trkpt>
<trkpt lat="41.8209417" lon="13.7901133">
<ele>1180.62</ele>
<time>2024-08-19T10:57:52.000Z</time>
</trkpt>
<trkpt lat="41.8207433" lon="13.7901183">
<ele>1180.60</ele>
<time>2024-08-19T10:57:55.000Z</time>
</trkpt>
<trkpt lat="41.8205583" lon="13.7900500">
<ele>1180.81</ele>
<time>2024-08-19T10:57:58.000Z</time>
</trkpt>
<trkpt lat="41.8204000" lon="13.7899050">
<ele>1181.91</ele>
<time>2024-08-19T10:58:01.000Z</time>
</trkpt>
<trkpt lat="41.8202400" lon="13.7897533">
<ele>1180.87</ele>
<time>2024-08-19T10:58:04.000Z</time>
</trkpt>
<trkpt lat="41.8200450" lon="13.7896733">
<ele>1177.77</ele>
<time>2024-08-19T10:58:07.000Z</time>
</trkpt>
<trkpt lat="41.8198400" lon="13.7896783">
<ele>1176.12</ele>
<time>2024-08-19T10:58:10.000Z</time>
</trkpt>
<trkpt lat="41.8196467" lon="13.7896933">
<ele>1175.85</ele>
<time>2024-08-19T10:58:13.000Z</time>
</trkpt>
<trkpt lat="41.8194433" lon="13.7896900">
<ele>1176.80</ele>
<time>2024-08-19T10:58:16.000Z</time>
</trkpt>
<trkpt lat="41.8192350" lon="13.7896783">
<ele>1175.67</ele>
<time>2024-08-19T10:58:19.000Z</time>
</trkpt>
<trkpt lat="41.8190450" lon="13.7896517">
<ele>1173.90</ele>
<time>2024-08-19T10:58:22.000Z</time>
</trkpt>
<trkpt lat="41.8188533" lon="13.7896350">
<ele>1173.03</ele>
<time>2024-08-19T10:58:25.000Z</time>
</trkpt>
<trkpt lat="41.8186600" lon="13.7896450">
<ele>1172.67</ele>
<time>2024-08-19T10:58:28.000Z</time>
</trkpt>
<trkpt lat="41.8184250" lon="13.7896967">
<ele>1170.40</ele>
<time>2024-08-19T10:58:32.000Z</time>
</trkpt>
<trkpt lat="41.8182450" lon="13.7898650">
<ele>1171.03</ele>
<time>2024-08-19T10:58:36.000Z</time>
</trkpt>
<trkpt lat="41.8180650" lon="13.7900567">
<ele>1172.02</ele>
<time>2024-08-19T10:58:40.000Z</time>
</trkpt>
<trkpt lat="41.8178817" lon="13.7901433">
<ele>1171.74</ele>
<time>2024-08-19T10:58:43.000Z</time>
</trkpt>
<trkpt lat="41.8176533" lon="13.7902050">
<ele>1171.40</ele>
<time>2024-08-19T10:58:46.000Z</time>
</trkpt>
<trkpt lat="41.8174117" lon="13.7902417">
<ele>1170.23</ele>
<time>2024-08-19T10:58:49.000Z</time>
</trkpt>
<trkpt lat="41.8171833" lon="13.7902700">
<ele>1167.42</ele>
<time>2024-08-19T10:58:52.000Z</time>
</trkpt>
<trkpt lat="41.8169533" lon="13.7903017">
<ele>1166.04</ele>
<time>2024-08-19T10:58:55.000Z</time>
</trkpt>
<trkpt lat="41.8167233" lon="13.7903617">
<ele>1167.34</ele>
<time>2024-08-19T10:58:58.000Z</time>
</trkpt>
<trkpt lat="41.8164967" lon="13.7903950">
<ele>1168.80</ele>
<time>2024-08-19T10:59:01.000Z</time>
</trkpt>
<trkpt lat="41.8162850" lon="13.7904267">
<ele>1167.60</ele>
<time>2024-08-19T10:59:04.000Z</time>
</trkpt>
<trkpt lat="41.8160667" lon="13.7904567">
<ele>1166.31</ele>
<time>2024-08-19T10:59:07.000Z</time>
</trkpt>
<trkpt lat="41.8158483" lon="13.7905000">
<ele>1164.90</ele>
<time>2024-08-19T10:59:10.000Z</time>
</trkpt>
<trkpt lat="41.8156167" lon="13.7905400">
<ele>1163.47</ele>
<time>2024-08-19T10:59:13.000Z</time>
</trkpt>
<trkpt lat="41.8154000" lon="13.7905750">
<ele>1162.77</ele>
<time>2024-08-19T10:59:16.000Z</time>
</trkpt>
<trkpt lat="41.8151767" lon="13.7906267">
<ele>1163.00</ele>
<time>2024-08-19T10:59:19.000Z</time>
</trkpt>
<trkpt lat="41.8149517" lon="13.7906583">
<ele>1163.17</ele>
<time>2024-08-19T10:59:22.000Z</time>
</trkpt>
<trkpt lat="41.8147450" lon="13.7906950">
<ele>1162.52</ele>
<time>2024-08-19T10:59:25.000Z</time>
</trkpt>
<trkpt lat="41.8145367" lon="13.7907267">
<ele>1162.27</ele>
<time>2024-08-19T10:59:28.000Z</time>
</trkpt>
<trkpt lat="41.8143283" lon="13.7907683">
<ele>1160.32</ele>
<time>2024-08-19T10:59:31.000Z</time>
</trkpt>
<trkpt lat="41.8141233" lon="13.7908100">
<ele>1160.87</ele>
<time>2024-08-19T10:59:34.000Z</time>
</trkpt>
<trkpt lat="41.8139183" lon="13.7908733">
<ele>1160.07</ele>
<time>2024-08-19T10:59:37.000Z</time>
</trkpt>
<trkpt lat="41.8137217" lon="13.7909150">
<ele>1159.27</ele>
<time>2024-08-19T10:59:40.000Z</time>
</trkpt>
<trkpt lat="41.8135300" lon="13.7909467">
<ele>1158.75</ele>
<time>2024-08-19T10:59:43.000Z</time>
</trkpt>
<trkpt lat="41.8133450" lon="13.7909967">
<ele>1158.55</ele>
<time>2024-08-19T10:59:46.000Z</time>
</trkpt>
<trkpt lat="41.8131550" lon="13.7910550">
<ele>1158.51</ele>
<time>2024-08-19T10:59:49.000Z</time>
</trkpt>
<trkpt lat="41.8129633" lon="13.7910967">
<ele>1158.07</ele>
<time>2024-08-19T10:59:52.000Z</time>
</trkpt>
<trkpt lat="41.8127600" lon="13.7911367">
<ele>1156.95</ele>
<time>2024-08-19T10:59:55.000Z</time>
</trkpt>
<trkpt lat="41.8125583" lon="13.7911583">
<ele>1152.91</ele>
<time>2024-08-19T10:59:58.000Z</time>
</trkpt>
<trkpt lat="41.8123700" lon="13.7911600">
<ele>1151.07</ele>
<time>2024-08-19T11:00:01.000Z</time>
</trkpt>
<trkpt lat="41.8121850" lon="13.7911783">
<ele>1149.96</ele>
<time>2024-08-19T11:00:04.000Z</time>
</trkpt>
<trkpt lat="41.8119800" lon="13.7911750">
<ele>1148.58</ele>
<time>2024-08-19T11:00:08.000Z</time>
</trkpt>
<trkpt lat="41.8117550" lon="13.7911967">
<ele>1149.05</ele>
<time>2024-08-19T11:00:13.000Z</time>
</trkpt>
<trkpt lat="41.8115483" lon="13.7912350">
<ele>1155.27</ele>
<time>2024-08-19T11:00:17.000Z</time>
</trkpt>
<trkpt lat="41.8113667" lon="13.7912317">
<ele>1156.54</ele>
<time>2024-08-19T11:00:20.000Z</time>
</trkpt>
<trkpt lat="41.8111283" lon="13.7911900">
<ele>1158.72</ele>
<time>2024-08-19T11:00:24.000Z</time>
</trkpt>
<trkpt lat="41.8109317" lon="13.7911400">
<ele>1160.21</ele>
<time>2024-08-19T11:00:27.000Z</time>
</trkpt>
<trkpt lat="41.8107400" lon="13.7911117">
<ele>1160.31</ele>
<time>2024-08-19T11:00:30.000Z</time>
</trkpt>
<trkpt lat="41.8105450" lon="13.7910683">
<ele>1160.88</ele>
<time>2024-08-19T11:00:33.000Z</time>
</trkpt>
<trkpt lat="41.8103117" lon="13.7910017">
<ele>1161.42</ele>
<time>2024-08-19T11:00:37.000Z</time>
</trkpt>
<trkpt lat="41.8100817" lon="13.7909833">
<ele>1165.13</ele>
<time>2024-08-19T11:00:41.000Z</time>
</trkpt>
<trkpt lat="41.8098750" lon="13.7909500">
<ele>1169.88</ele>
<time>2024-08-19T11:00:45.000Z</time>
</trkpt>
<trkpt lat="41.8096667" lon="13.7908850">
<ele>1168.32</ele>
<time>2024-08-19T11:00:49.000Z</time>
</trkpt>
<trkpt lat="41.8094833" lon="13.7908633">
<ele>1168.78</ele>
<time>2024-08-19T11:00:53.000Z</time>
</trkpt>
<trkpt lat="41.8092767" lon="13.7908117">
<ele>1170.43</ele>
<time>2024-08-19T11:00:57.000Z</time>
</trkpt>
<trkpt lat="41.8091350" lon="13.7906483">
<ele>1170.01</ele>
<time>2024-08-19T11:01:04.000Z</time>
</trkpt>
<trkpt lat="41.8090100" lon="13.7904383">
<ele>1165.27</ele>
<time>2024-08-19T11:01:14.000Z</time>
</trkpt>
<trkpt lat="41.8089083" lon="13.7902317">
<ele>1164.77</ele>
<time>2024-08-19T11:01:19.000Z</time>
</trkpt>
<trkpt lat="41.8087950" lon="13.7899983">
<ele>1165.42</ele>
<time>2024-08-19T11:01:25.000Z</time>
</trkpt>
<trkpt lat="41.8087050" lon="13.7897350">
<ele>1166.59</ele>
<time>2024-08-19T11:01:31.000Z</time>
</trkpt>
<trkpt lat="41.8086100" lon="13.7895133">
<ele>1159.70</ele>
<time>2024-08-19T11:01:38.000Z</time>
</trkpt>
<trkpt lat="41.8085067" lon="13.7893000">
<ele>1161.23</ele>
<time>2024-08-19T11:01:44.000Z</time>
</trkpt>
<trkpt lat="41.8083333" lon="13.7891183">
<ele>1160.93</ele>
<time>2024-08-19T11:01:49.000Z</time>
</trkpt>
<trkpt lat="41.8081400" lon="13.7889967">
<ele>1162.90</ele>
<time>2024-08-19T11:01:53.000Z</time>
</trkpt>
<trkpt lat="41.8079433" lon="13.7888883">
<ele>1163.69</ele>
<time>2024-08-19T11:01:57.000Z</time>
</trkpt>
<trkpt lat="41.8077267" lon="13.7887933">
<ele>1161.07</ele>
<time>2024-08-19T11:02:01.000Z</time>
</trkpt>
<trkpt lat="41.8075017" lon="13.7887033">
<ele>1159.82</ele>
<time>2024-08-19T11:02:05.000Z</time>
</trkpt>
<trkpt lat="41.8072783" lon="13.7886117">
<ele>1158.81</ele>
<time>2024-08-19T11:02:09.000Z</time>
</trkpt>
<trkpt lat="41.8070467" lon="13.7885333">
<ele>1157.13</ele>
<time>2024-08-19T11:02:13.000Z</time>
</trkpt>
<trkpt lat="41.8068467" lon="13.7884300">
<ele>1157.48</ele>
<time>2024-08-19T11:02:17.000Z</time>
</trkpt>
<trkpt lat="41.8066233" lon="13.7883383">
<ele>1158.33</ele>
<time>2024-08-19T11:02:21.000Z</time>
</trkpt>
<trkpt lat="41.8064167" lon="13.7882450">
<ele>1158.93</ele>
<time>2024-08-19T11:02:25.000Z</time>
</trkpt>
<trkpt lat="41.8062033" lon="13.7881767">
<ele>1160.70</ele>
<time>2024-08-19T11:02:29.000Z</time>
</trkpt>
<trkpt lat="41.8059850" lon="13.7881217">
<ele>1161.77</ele>
<time>2024-08-19T11:02:33.000Z</time>
</trkpt>
<trkpt lat="41.8057783" lon="13.7880550">
<ele>1162.90</ele>
<time>2024-08-19T11:02:37.000Z</time>
</trkpt>
<trkpt lat="41.8055483" lon="13.7879883">
<ele>1159.58</ele>
<time>2024-08-19T11:02:41.000Z</time>
</trkpt>
<trkpt lat="41.8053250" lon="13.7879267">
<ele>1156.53</ele>
<time>2024-08-19T11:02:45.000Z</time>
</trkpt>
<trkpt lat="41.8051383" lon="13.7878683">
<ele>1156.12</ele>
<time>2024-08-19T11:02:48.000Z</time>
</trkpt>
<trkpt lat="41.8049350" lon="13.7878283">
<ele>1157.89</ele>
<time>2024-08-19T11:02:51.000Z</time>
</trkpt>
<trkpt lat="41.8047567" lon="13.7877833">
<ele>1158.12</ele>
<time>2024-08-19T11:02:54.000Z</time>
</trkpt>
<trkpt lat="41.8045267" lon="13.7877133">
<ele>1158.60</ele>
<time>2024-08-19T11:02:58.000Z</time>
</trkpt>
<trkpt lat="41.8043400" lon="13.7876550">
<ele>1157.72</ele>
<time>2024-08-19T11:03:01.000Z</time>
</trkpt>
<trkpt lat="41.8041017" lon="13.7875917">
<ele>1157.83</ele>
<time>2024-08-19T11:03:05.000Z</time>
</trkpt>
<trkpt lat="41.8038967" lon="13.7875583">
<ele>1159.89</ele>
<time>2024-08-19T11:03:09.000Z</time>
</trkpt>
<trkpt lat="41.8037067" lon="13.7874983">
<ele>1160.16</ele>
<time>2024-08-19T11:03:15.000Z</time>
</trkpt>
<trkpt lat="41.8035117" lon="13.7874383">
<ele>1159.73</ele>
<time>2024-08-19T11:03:19.000Z</time>
</trkpt>
<trkpt lat="41.8033033" lon="13.7873683">
<ele>1162.16</ele>
<time>2024-08-19T11:03:23.000Z</time>
</trkpt>
<trkpt lat="41.8030900" lon="13.7872717">
<ele>1161.18</ele>
<time>2024-08-19T11:03:27.000Z</time>
</trkpt>
<trkpt lat="41.8028750" lon="13.7871800">
<ele>1160.40</ele>
<time>2024-08-19T11:03:31.000Z</time>
</trkpt>
<trkpt lat="41.8026867" lon="13.7870967">
<ele>1159.17</ele>
<time>2024-08-19T11:03:34.000Z</time>
</trkpt>
<trkpt lat="41.8024633" lon="13.7869900">
<ele>1157.09</ele>
<time>2024-08-19T11:03:38.000Z</time>
</trkpt>
<trkpt lat="41.8022817" lon="13.7869167">
<ele>1157.41</ele>
<time>2024-08-19T11:03:41.000Z</time>
</trkpt>
<trkpt lat="41.8021050" lon="13.7868567">
<ele>1157.98</ele>
<time>2024-08-19T11:03:44.000Z</time>
</trkpt>
<trkpt lat="41.8019283" lon="13.7867517">
<ele>1158.43</ele>
<time>2024-08-19T11:03:47.000Z</time>
</trkpt>
<trkpt lat="41.8017550" lon="13.7866550">
<ele>1157.72</ele>
<time>2024-08-19T11:03:50.000Z</time>
</trkpt>
<trkpt lat="41.8015667" lon="13.7865833">
<ele>1157.55</ele>
<time>2024-08-19T11:03:53.000Z</time>
</trkpt>
<trkpt lat="41.8013717" lon="13.7865233">
<ele>1157.58</ele>
<time>2024-08-19T11:03:56.000Z</time>
</trkpt>
<trkpt lat="41.8011867" lon="13.7864450">
<ele>1156.87</ele>
<time>2024-08-19T11:03:59.000Z</time>
</trkpt>
<trkpt lat="41.8010017" lon="13.7863617">
<ele>1156.40</ele>
<time>2024-08-19T11:04:02.000Z</time>
</trkpt>
<trkpt lat="41.8008167" lon="13.7863117">
<ele>1154.86</ele>
<time>2024-08-19T11:04:05.000Z</time>
</trkpt>
<trkpt lat="41.8006267" lon="13.7862550">
<ele>1155.19</ele>
<time>2024-08-19T11:04:08.000Z</time>
</trkpt>
<trkpt lat="41.8004517" lon="13.7861867">
<ele>1155.63</ele>
<time>2024-08-19T11:04:11.000Z</time>
</trkpt>
<trkpt lat="41.8002267" lon="13.7861150">
<ele>1153.22</ele>
<time>2024-08-19T11:04:15.000Z</time>
</trkpt>
<trkpt lat="41.7999933" lon="13.7860500">
<ele>1152.27</ele>
<time>2024-08-19T11:04:19.000Z</time>
</trkpt>
<trkpt lat="41.7997800" lon="13.7859700">
<ele>1153.84</ele>
<time>2024-08-19T11:04:23.000Z</time>
</trkpt>
<trkpt lat="41.7995550" lon="13.7858733">
<ele>1154.64</ele>
<time>2024-08-19T11:04:27.000Z</time>
</trkpt>
<trkpt lat="41.7993450" lon="13.7857917">
<ele>1154.61</ele>
<time>2024-08-19T11:04:31.000Z</time>
</trkpt>
<trkpt lat="41.7991217" lon="13.7856983">
<ele>1154.90</ele>
<time>2024-08-19T11:04:35.000Z</time>
</trkpt>
<trkpt lat="41.7989317" lon="13.7856167">
<ele>1155.35</ele>
<time>2024-08-19T11:04:39.000Z</time>
</trkpt>
<trkpt lat="41.7987233" lon="13.7855717">
<ele>1154.83</ele>
<time>2024-08-19T11:04:43.000Z</time>
</trkpt>
<trkpt lat="41.7985117" lon="13.7855367">
<ele>1154.43</ele>
<time>2024-08-19T11:04:47.000Z</time>
</trkpt>
<trkpt lat="41.7983333" lon="13.7854900">
<ele>1155.62</ele>
<time>2024-08-19T11:04:50.000Z</time>
</trkpt>
<trkpt lat="41.7981150" lon="13.7854500">
<ele>1154.87</ele>
<time>2024-08-19T11:04:54.000Z</time>
</trkpt>
<trkpt lat="41.7979133" lon="13.7854017">
<ele>1154.93</ele>
<time>2024-08-19T11:04:58.000Z</time>
</trkpt>
<trkpt lat="41.7977483" lon="13.7853000">
<ele>1155.71</ele>
<time>2024-08-19T11:05:02.000Z</time>
</trkpt>
<trkpt lat="41.7976150" lon="13.7851367">
<ele>1157.98</ele>
<time>2024-08-19T11:05:06.000Z</time>
</trkpt>
<trkpt lat="41.7974417" lon="13.7849533">
<ele>1159.61</ele>
<time>2024-08-19T11:05:11.000Z</time>
</trkpt>
<trkpt lat="41.7972933" lon="13.7847733">
<ele>1161.08</ele>
<time>2024-08-19T11:05:16.000Z</time>
</trkpt>
<trkpt lat="41.7971467" lon="13.7846233">
<ele>1161.30</ele>
<time>2024-08-19T11:05:21.000Z</time>
</trkpt>
<trkpt lat="41.7969700" lon="13.7844817">
<ele>1160.28</ele>
<time>2024-08-19T11:05:27.000Z</time>
</trkpt>
<trkpt lat="41.7967983" lon="13.7843700">
<ele>1160.49</ele>
<time>2024-08-19T11:05:32.000Z</time>
</trkpt>
<trkpt lat="41.7966217" lon="13.7842517">
<ele>1161.97</ele>
<time>2024-08-19T11:05:37.000Z</time>
</trkpt>
<trkpt lat="41.7964050" lon="13.7842200">
<ele>1162.56</ele>
<time>2024-08-19T11:05:43.000Z</time>
</trkpt>
<trkpt lat="41.7962133" lon="13.7841750">
<ele>1163.31</ele>
<time>2024-08-19T11:05:48.000Z</time>
</trkpt>
<trkpt lat="41.7960433" lon="13.7840950">
<ele>1167.30</ele>
<time>2024-08-19T11:05:53.000Z</time>
</trkpt>
<trkpt lat="41.7958700" lon="13.7839300">
<ele>1171.19</ele>
<time>2024-08-19T11:05:58.000Z</time>
</trkpt>
<trkpt lat="41.7957283" lon="13.7837117">
<ele>1172.50</ele>
<time>2024-08-19T11:06:03.000Z</time>
</trkpt>
<trkpt lat="41.7955733" lon="13.7834967">
<ele>1171.87</ele>
<time>2024-08-19T11:06:08.000Z</time>
</trkpt>
<trkpt lat="41.7955050" lon="13.7832567">
<ele>1169.32</ele>
<time>2024-08-19T11:06:13.000Z</time>
</trkpt>
<trkpt lat="41.7953333" lon="13.7831683">
<ele>1165.53</ele>
<time>2024-08-19T11:06:43.000Z</time>
</trkpt>
<trkpt lat="41.7953467" lon="13.7835233">
<ele>1213.85</ele>
<time>2024-08-19T11:07:53.000Z</time>
</trkpt>
<extensions>
<om:oruxmapsextensions>
<om:ext type="NAME" subtype="0"><![CDATA[Segment: 1]]></om:ext>
</om:oruxmapsextensions>
</extensions>
</trkseg>
</trk>
</gpx>
